Observation data for Sierra Blanca on 07/12/2018      Previous  Date       Current Mesonet Observations  Soil Data  Daily Summary Page  Observations in Plain Language
KSB1 120500Z 35002KT 25/16 A3018 RMK A01 T02490155  RH  056%=      5-min Rain = 0
KSB1 120501Z 34003KT 25/16 A3018 RMK A01 T02490156  RH  056%=      5-min Rain = 0
KSB1 120502Z 34003KT 25/16 A3018 RMK A01 T02480156  RH  057%=      5-min Rain = 0
KSB1 120503Z 34003KT 25/16 A3018 RMK A01 T02470157  RH  057%=      5-min Rain = 0
KSB1 120504Z 34003KT 25/16 A3018 RMK A01 T02460156  RH  057%=      5-min Rain = 0
KSB1 120505Z 34004KT 25/16 A3018 RMK A01 T02460155  RH  057%=      5-min Rain = 0
KSB1 120506Z 34003KT 25/15 A3018 RMK A01 T02450153  RH  057%=      5-min Rain = 0
KSB1 120507Z 34003KT 25/15 A3018 RMK A01 T02450153  RH  056%=      5-min Rain = 0
KSB1 120508Z 34003KT 25/15 A3018 RMK A01 T02450151  RH  056%=      5-min Rain = 0
KSB1 120509Z 34002KT 25/15 A3018 RMK A01 T02450151  RH  056%=      5-min Rain = 0
KSB1 120510Z 34002KT 25/15 A3018 RMK A01 T02450151  RH  056%=      5-min Rain = 0
KSB1 120511Z 34002KT 25/15 A3018 RMK A01 T02450150  RH  055%=      5-min Rain = 0
KSB1 120512Z 35002KT 25/15 A3018 RMK A01 T02450149  RH  055%=      5-min Rain = 0
KSB1 120513Z 35002KT 25/15 A3018 RMK A01 T02450148  RH  055%=      5-min Rain = 0
KSB1 120514Z 35002KT 25/15 A3018 RMK A01 T02460147  RH  054%=      5-min Rain = 0
KSB1 120515Z 35002KT 25/15 A3018 RMK A01 T02460145  RH  053%=      5-min Rain = 0
KSB1 120516Z 35002KT 25/15 A3018 RMK A01 T02470146  RH  053%=      5-min Rain = 0
KSB1 120517Z 35002KT 25/15 A3018 RMK A01 T02480145  RH  053%=      5-min Rain = 0
KSB1 120518Z 35001KT 25/15 A3018 RMK A01 T02480145  RH  053%=      5-min Rain = 0
KSB1 120519Z 00001KT 25/15 A3018 RMK A01 T02490145  RH  053%=      5-min Rain = 0
KSB1 120520Z 00001KT 25/14 A3018 RMK A01 T02490144  RH  052%=      5-min Rain = 0
KSB1 120521Z 00001KT 25/15 A3018 RMK A01 T02500145  RH  052%=      5-min Rain = 0
KSB1 120522Z 00001KT 25/15 A3018 RMK A01 T02500145  RH  052%=      5-min Rain = 0
KSB1 120523Z 01001KT 25/15 A3018 RMK A01 T02500145  RH  052%=      5-min Rain = 0
KSB1 120524Z 00001KT 25/15 A3018 RMK A01 T02500145  RH  052%=      5-min Rain = 0
KSB1 120525Z 01001KT 25/15 A3018 RMK A01 T02510145  RH  052%=      5-min Rain = 0
KSB1 120526Z 02001KT 25/14 A3018 RMK A01 T02510144  RH  051%=      5-min Rain = 0
KSB1 120527Z 03001KT 25/14 A3018 RMK A01 T02510143  RH  051%=      5-min Rain = 0
KSB1 120528Z 02001KT 25/14 A3018 RMK A01 T02520142  RH  050%=      5-min Rain = 0
KSB1 120529Z 02001KT 25/14 A3018 RMK A01 T02530143  RH  050%=      5-min Rain = 0
KSB1 120530Z 03001KT 25/14 A3018 RMK A01 T02520142  RH  050%=      5-min Rain = 0
KSB1 120531Z 03001KT 25/14 A3018 RMK A01 T02530142  RH  050%=      5-min Rain = 0
KSB1 120532Z 04001KT 25/14 A3018 RMK A01 T02530143  RH  051%=      5-min Rain = 0
KSB1 120533Z 03001KT 25/15 A3018 RMK A01 T02530145  RH  051%=      5-min Rain = 0
KSB1 120534Z 03001KT 25/15 A3018 RMK A01 T02530150  RH  053%=      5-min Rain = 0
KSB1 120535Z 02001KT 25/15 A3018 RMK A01 T02520149  RH  053%=      5-min Rain = 0
KSB1 120536Z 03001KT 25/15 A3018 RMK A01 T02510148  RH  053%=      5-min Rain = 0
KSB1 120537Z 03001KT 25/15 A3018 RMK A01 T02510148  RH  053%=      5-min Rain = 0
KSB1 120538Z 03001KT 25/15 A3018 RMK A01 T02510147  RH  053%=      5-min Rain = 0
KSB1 120539Z 03001KT 25/15 A3018 RMK A01 T02500146  RH  052%=      5-min Rain = 0
KSB1 120540Z 07003KT 25/16 A3018 RMK A01 T02500158  RH  056%=      5-min Rain = 0
KSB1 120541Z 03001KT 25/16 A3018 RMK A01 T02460160  RH  059%=      5-min Rain = 0
KSB1 120542Z 05002KT 24/16 A3019 RMK A01 T02430159  RH  059%=      5-min Rain = 0
KSB1 120543Z 06002KT 24/16 A3019 RMK A01 T02410157  RH  059%=      5-min Rain = 0
KSB1 120544Z 05002KT 24/16 A3019 RMK A01 T02400155  RH  059%=      5-min Rain = 0
KSB1 120545Z 02001KT 24/15 A3019 RMK A01 T02390150  RH  057%=      5-min Rain = 0
KSB1 120546Z 00003KT 24/15 A3019 RMK A01 T02380149  RH  057%=      5-min Rain = 0
KSB1 120547Z 35004KT 24/15 A3019 RMK A01 T02390150  RH  058%=      5-min Rain = 0
KSB1 120548Z 35004KT 24/15 A3019 RMK A01 T02390149  RH  057%=      5-min Rain = 0
KSB1 120549Z 35004KT 24/15 A3019 RMK A01 T02390151  RH  058%=      5-min Rain = 0
KSB1 120550Z 34004KT 24/15 A3019 RMK A01 T02390148  RH  057%=      5-min Rain = 0
KSB1 120551Z 34004KT 24/15 A3019 RMK A01 T02400148  RH  056%=      5-min Rain = 0
KSB1 120552Z 35003KT 24/15 A3019 RMK A01 T02400149  RH  057%=      5-min Rain = 0
KSB1 120553Z 34003KT 24/15 A3019 RMK A01 T02410153  RH  058%=      5-min Rain = 0
KSB1 120554Z 35004KT 24/16 A3019 RMK A01 T02400155  RH  059%=      5-min Rain = 0
KSB1 120555Z 35003KT 24/15 A3019 RMK A01 T02400154  RH  058%=      5-min Rain = 0
KSB1 120556Z 35004KT 24/15 A3019 RMK A01 T02400153  RH  058%=      5-min Rain = 0
KSB1 120557Z 00003KT 24/15 A3019 RMK A01 T02400154  RH  058%=      5-min Rain = 0
KSB1 120558Z 01003KT 24/15 A3019 RMK A01 T02400152  RH  058%=      5-min Rain = 0
KSB1 120559Z 01003KT 24/15 A3019 RMK A01 T02400152  RH  058%=      5-min Rain = 0
KSB1 120600Z 01002KT 24/15 A3019 RMK A01 T02400152  RH  058%=      5-min Rain = 0
KSB1 120601Z 01002KT 24/15 A3019 RMK A01 T02400151  RH  058%=      5-min Rain = 0
KSB1 120602Z 01002KT 24/15 A3019 RMK A01 T02400151  RH  057%=      5-min Rain = 0
KSB1 120603Z 01002KT 24/15 A3019 RMK A01 T02400151  RH  057%=      5-min Rain = 0
KSB1 120604Z 02002KT 24/15 A3019 RMK A01 T02400151  RH  058%=      5-min Rain = 0
KSB1 120605Z 02002KT 24/15 A3019 RMK A01 T02400151  RH  057%=      5-min Rain = 0
KSB1 120606Z 02002KT 24/15 A3018 RMK A01 T02410151  RH  057%=      5-min Rain = 0
KSB1 120607Z 03002KT 24/15 A3018 RMK A01 T02400150  RH  057%=      5-min Rain = 0
KSB1 120608Z 01002KT 24/15 A3018 RMK A01 T02410150  RH  057%=      5-min Rain = 0
KSB1 120609Z 01002KT 24/15 A3018 RMK A01 T02410150  RH  057%=      5-min Rain = 0
KSB1 120610Z 01001KT 24/15 A3018 RMK A01 T02410150  RH  057%=      5-min Rain = 0
KSB1 120611Z 01001KT 24/15 A3018 RMK A01 T02420152  RH  057%=      5-min Rain = 0
KSB1 120612Z 01001KT 24/15 A3018 RMK A01 T02410149  RH  056%=      5-min Rain = 0
KSB1 120613Z 02002KT 24/15 A3018 RMK A01 T02410150  RH  057%=      5-min Rain = 0
KSB1 120614Z 02001KT 24/15 A3018 RMK A01 T02410152  RH  057%=      5-min Rain = 0
KSB1 120615Z 02001KT 24/15 A3018 RMK A01 T02410152  RH  057%=      5-min Rain = 0
KSB1 120616Z 01001KT 24/15 A3018 RMK A01 T02410150  RH  057%=      5-min Rain = 0
KSB1 120617Z 35001KT 24/15 A3018 RMK A01 T02420148  RH  056%=      5-min Rain = 0
KSB1 120618Z 36001KT 24/15 A3018 RMK A01 T02420146  RH  055%=      5-min Rain = 0
KSB1 120619Z 00002KT 24/15 A3018 RMK A01 T02430147  RH  055%=      5-min Rain = 0
KSB1 120620Z 35002KT 24/15 A3018 RMK A01 T02430148  RH  055%=      5-min Rain = 0
KSB1 120621Z 34002KT 24/15 A3018 RMK A01 T02440148  RH  055%=      5-min Rain = 0
KSB1 120622Z 34002KT 24/15 A3018 RMK A01 T02440147  RH  055%=      5-min Rain = 0
KSB1 120623Z 33002KT 24/15 A3018 RMK A01 T02440147  RH  055%=      5-min Rain = 0
KSB1 120624Z 31002KT 25/15 A3018 RMK A01 T02450147  RH  054%=      5-min Rain = 0
KSB1 120625Z 30002KT 25/15 A3018 RMK A01 T02450147  RH  055%=      5-min Rain = 0
KSB1 120626Z 30003KT 25/15 A3018 RMK A01 T02450147  RH  054%=      5-min Rain = 0
KSB1 120627Z 30004KT 25/15 A3018 RMK A01 T02460146  RH  054%=      5-min Rain = 0
KSB1 120628Z 29004KT 25/15 A3019 RMK A01 T02460145  RH  053%=      5-min Rain = 0
KSB1 120629Z 27004KT 25/15 A3019 RMK A01 T02470147  RH  054%=      5-min Rain = 0
KSB1 120630Z 25006KT 25/15 A3019 RMK A01 T02460153  RH  056%=      5-min Rain = 0
KSB1 120631Z 26008KT 24/16 A3019 RMK A01 T02430155  RH  058%=      5-min Rain = 0
KSB1 120632Z 26008KT 24/15 A3019 RMK A01 T02390153  RH  059%=      5-min Rain = 0
KSB1 120633Z 27007KT 24/15 A3019 RMK A01 T02370152  RH  059%=      5-min Rain = 0
KSB1 120634Z 27007KT 24/15 A3019 RMK A01 T02360151  RH  059%=      5-min Rain = 0
KSB1 120635Z 28007KT 24/15 A3019 RMK A01 T02350151  RH  059%=      5-min Rain = 0
KSB1 120636Z 28006KT 24/15 A3019 RMK A01 T02350149  RH  058%=      5-min Rain = 0
KSB1 120637Z 28006KT 24/15 A3019 RMK A01 T02360149  RH  058%=      5-min Rain = 0
KSB1 120638Z 29004KT 24/15 A3019 RMK A01 T02370149  RH  058%=      5-min Rain = 0
KSB1 120639Z 29004KT 24/15 A3019 RMK A01 T02370149  RH  058%=      5-min Rain = 0
KSB1 120640Z 29005KT 24/15 A3019 RMK A01 T02380146  RH  056%=      5-min Rain = 0
KSB1 120641Z 30004KT 24/14 A3019 RMK A01 T02400144  RH  055%=      5-min Rain = 0
KSB1 120642Z 30003KT 24/14 A3019 RMK A01 T02420144  RH  054%=      5-min Rain = 0
KSB1 120643Z 31004KT 24/14 A3019 RMK A01 T02440144  RH  054%=      5-min Rain = 0
KSB1 120644Z 32004KT 25/15 A3019 RMK A01 T02450145  RH  054%=      5-min Rain = 0
KSB1 120645Z 32005KT 25/15 A3019 RMK A01 T02460145  RH  053%=      5-min Rain = 0
KSB1 120646Z 31005KT 25/14 A3019 RMK A01 T02470143  RH  052%=      5-min Rain = 0
KSB1 120647Z 31006KT 25/14 A3019 RMK A01 T02480144  RH  052%=      5-min Rain = 0
KSB1 120648Z 30007KT 25/15 A3019 RMK A01 T02490145  RH  052%=      5-min Rain = 0
KSB1 120649Z 27008KT 25/15 A3019 RMK A01 T02490145  RH  052%=      5-min Rain = 0
KSB1 120650Z 28008KT 25/15 A3019 RMK A01 T02490146  RH  053%=      5-min Rain = 0
KSB1 120651Z 29009KT 25/15 A3019 RMK A01 T02480146  RH  053%=      5-min Rain = 0
KSB1 120652Z 29008KT 25/15 A3019 RMK A01 T02480146  RH  053%=      5-min Rain = 0
KSB1 120653Z 29008KT 25/15 A3019 RMK A01 T02470146  RH  053%=      5-min Rain = 0
KSB1 120654Z 30008KT 25/15 A3019 RMK A01 T02460145  RH  053%=      5-min Rain = 0
KSB1 120655Z 29010KT 25/15 A3019 RMK A01 T02450145  RH  054%=      5-min Rain = 0
KSB1 120656Z 31009KT 25/15 A3019 RMK A01 T02450145  RH  054%=      5-min Rain = 0
KSB1 120657Z 28008KT 24/15 A3019 RMK A01 T02440146  RH  054%=      5-min Rain = 0
KSB1 120658Z 30009KT 24/15 A3019 RMK A01 T02440147  RH  055%=      5-min Rain = 0
KSB1 120659Z 28010KT 24/15 A3019 RMK A01 T02430147  RH  055%=      5-min Rain = 0
KSB1 120700Z 30010G15KT 24/15 A3019 RMK A01 T02430147  RH  055%=      5-min Rain = 0
KSB1 120701Z 29012KT 24/15 A3019 RMK A01 T02430148  RH  055%=      5-min Rain = 0
KSB1 120702Z 30011KT 24/15 A3019 RMK A01 T02420148  RH  055%=      5-min Rain = 0
KSB1 120703Z 30009KT 24/15 A3019 RMK A01 T02420148  RH  055%=      5-min Rain = 0
KSB1 120704Z 30010KT 24/15 A3019 RMK A01 T02420148  RH  056%=      5-min Rain = 0
KSB1 120705Z 30013KT 24/15 A3019 RMK A01 T02420148  RH  056%=      5-min Rain = 0
KSB1 120706Z 30013KT 24/15 A3019 RMK A01 T02410149  RH  056%=      5-min Rain = 0
KSB1 120707Z 30014KT 24/15 A3019 RMK A01 T02400150  RH  057%=      5-min Rain = 0
KSB1 120708Z 30013KT 24/15 A3019 RMK A01 T02390154  RH  059%=      5-min Rain = 0
KSB1 120709Z 31012KT 24/16 A3019 RMK A01 T02370160  RH  062%=      5-min Rain = 0
KSB1 120710Z 30012KT 23/16 A3019 RMK A01 T02330163  RH  065%=      5-min Rain = 0
KSB1 120711Z 31012KT 23/16 A3019 RMK A01 T02290163  RH  066%=      5-min Rain = 0
KSB1 120712Z 30016G22KT 23/16 A3019 RMK A01 T02250163  RH  068%=      5-min Rain = 0
KSB1 120713Z 30020G27KT 22/16 A3019 RMK A01 T02210158  RH  068%=      5-min Rain = 0
KSB1 120714Z 30022G27KT 22/15 A3019 RMK A01 T02160154  RH  068%=      5-min Rain = 0
KSB1 120715Z 30021KT 21/15 A3019 RMK A01 T02120148  RH  067%=      5-min Rain = 0
KSB1 120716Z 30021KT 21/15 A3019 RMK A01 T02100149  RH  068%=      5-min Rain = 0
KSB1 120717Z 30016KT 21/15 A3019 RMK A01 T02080149  RH  069%=      5-min Rain = 0
KSB1 120718Z 30017KT 21/15 A3019 RMK A01 T02070154  RH  071%=      5-min Rain = 0
KSB1 120719Z 30014KT 21/16 A3019 RMK A01 T02080156  RH  072%=      5-min Rain = 0
KSB1 120720Z 29015KT 21/15 A3019 RMK A01 T02090154  RH  071%=      5-min Rain = 0
KSB1 120721Z 30013KT 21/16 A3019 RMK A01 T02110159  RH  072%=      5-min Rain = 0
KSB1 120722Z 29015G20KT 21/16 A3019 RMK A01 T02100159  RH  073%=      5-min Rain = 0
KSB1 120723Z 30016KT 21/16 A3019 RMK A01 T02080160  RH  074%=      5-min Rain = 0
KSB1 120724Z 30016KT 21/16 A3019 RMK A01 T02070159  RH  074%=      5-min Rain = 0
KSB1 120725Z 30017KT 21/16 A3019 RMK A01 T02070159  RH  074%=      5-min Rain = 0
KSB1 120726Z 30016KT 21/16 A3019 RMK A01 T02070158  RH  073%=      5-min Rain = 0
KSB1 120727Z 30017G22KT 21/16 A3019 RMK A01 T02080159  RH  073%=      5-min Rain = 0
KSB1 120728Z 30019KT 21/16 A3019 RMK A01 T02080159  RH  074%=      5-min Rain = 0
KSB1 120729Z 30018KT 21/16 A3019 RMK A01 T02070159  RH  074%=      5-min Rain = 0
KSB1 120730Z 29015KT 21/16 A3019 RMK A01 T02070159  RH  074%=      5-min Rain = 0
KSB1 120731Z 30018KT 21/16 A3019 RMK A01 T02070158  RH  074%=      5-min Rain = 0
KSB1 120732Z 30019KT 21/16 A3019 RMK A01 T02070158  RH  073%=      5-min Rain = 0
KSB1 120733Z 30019KT 21/16 A3019 RMK A01 T02070156  RH  072%=      5-min Rain = 0
KSB1 120734Z 30018KT 21/16 A3019 RMK A01 T02080156  RH  072%=      5-min Rain = 0
KSB1 120735Z 30015KT 21/16 A3019 RMK A01 T02080156  RH  072%=      5-min Rain = 0
KSB1 120736Z 30016KT 21/16 A3019 RMK A01 T02070159  RH  074%=      5-min Rain = 0
KSB1 120737Z 30017KT 21/16 A3019 RMK A01 T02050160  RH  076%=      5-min Rain = 0
KSB1 120738Z 29017KT 20/15 A3019 RMK A01 T02030154  RH  074%=      5-min Rain = 0
KSB1 120739Z 30016KT 21/15 A3019 RMK A01 T02050149  RH  071%=      5-min Rain = 0
KSB1 120740Z 30015KT 21/15 A3019 RMK A01 T02070148  RH  069%=      5-min Rain = 0
KSB1 120741Z 30015KT 21/15 A3018 RMK A01 T02090147  RH  068%=      5-min Rain = 0
KSB1 120742Z 29015KT 21/15 A3018 RMK A01 T02100145  RH  066%=      5-min Rain = 0
KSB1 120743Z 30012KT 21/14 A3018 RMK A01 T02110144  RH  065%=      5-min Rain = 0
KSB1 120744Z 30013KT 21/14 A3018 RMK A01 T02130144  RH  065%=      5-min Rain = 0
KSB1 120745Z 29014KT 21/15 A3018 RMK A01 T02140147  RH  066%=      5-min Rain = 0
KSB1 120746Z 30013KT 21/15 A3018 RMK A01 T02130148  RH  066%=      5-min Rain = 0
KSB1 120747Z 30014KT 21/15 A3018 RMK A01 T02110148  RH  067%=      5-min Rain = 0
KSB1 120748Z 31015KT 21/15 A3018 RMK A01 T02100152  RH  069%=      5-min Rain = 0
KSB1 120749Z 31016KT 21/15 A3018 RMK A01 T02080152  RH  070%=      5-min Rain = 0
KSB1 120750Z 31015KT 21/15 A3018 RMK A01 T02080151  RH  070%=      5-min Rain = 0
KSB1 120751Z 31015KT 21/15 A3018 RMK A01 T02080151  RH  070%=      5-min Rain = 0
KSB1 120752Z 31014KT 21/15 A3019 RMK A01 T02090150  RH  069%=      5-min Rain = 0
KSB1 120753Z 31015KT 21/15 A3019 RMK A01 T02100150  RH  069%=      5-min Rain = 0
KSB1 120754Z 31015KT 21/15 A3019 RMK A01 T02110149  RH  068%=      5-min Rain = 0
KSB1 120755Z 31014KT 21/15 A3019 RMK A01 T02120149  RH  067%=      5-min Rain = 0
KSB1 120756Z 31015KT 21/15 A3018 RMK A01 T02120151  RH  068%=      5-min Rain = 0
KSB1 120757Z 31013KT 21/15 A3018 RMK A01 T02110152  RH  069%=      5-min Rain = 0
KSB1 120758Z 30014KT 21/15 A3018 RMK A01 T02110152  RH  069%=      5-min Rain = 0
KSB1 120759Z 31014KT 21/15 A3018 RMK A01 T02110150  RH  068%=      5-min Rain = 0
KSB1 120800Z 31015KT 21/15 A3018 RMK A01 T02120151  RH  068%=      5-min Rain = 0
KSB1 120801Z 31014KT 21/15 A3018 RMK A01 T02120151  RH  068%=      5-min Rain = 0
KSB1 120802Z 31013KT 21/15 A3018 RMK A01 T02120151  RH  068%=      5-min Rain = 0
KSB1 120803Z 31013KT 21/15 A3018 RMK A01 T02130152  RH  068%=      5-min Rain = 0
KSB1 120804Z 30013KT 21/15 A3018 RMK A01 T02130152  RH  068%=      5-min Rain = 0
KSB1 120805Z 30013KT 21/15 A3018 RMK A01 T02130152  RH  068%=      5-min Rain = 0
KSB1 120806Z 30014KT 21/15 A3018 RMK A01 T02130152  RH  068%=      5-min Rain = 0
KSB1 120807Z 31013KT 21/15 A3018 RMK A01 T02130152  RH  068%=      5-min Rain = 0
KSB1 120808Z 30011KT 21/15 A3018 RMK A01 T02130152  RH  068%=      5-min Rain = 0
KSB1 120809Z 30012KT 21/15 A3018 RMK A01 T02140151  RH  068%=      5-min Rain = 0
KSB1 120810Z 30013KT 21/15 A3018 RMK A01 T02140150  RH  067%=      5-min Rain = 0
KSB1 120811Z 30012KT 22/15 A3018 RMK A01 T02150150  RH  067%=      5-min Rain = 0
KSB1 120812Z 30013KT 22/15 A3018 RMK A01 T02150150  RH  066%=      5-min Rain = 0
KSB1 120813Z 30012KT 22/15 A3018 RMK A01 T02150151  RH  067%=      5-min Rain = 0
KSB1 120814Z 30011KT 22/15 A3018 RMK A01 T02150151  RH  067%=      5-min Rain = 0
KSB1 120815Z 29010KT 22/15 A3019 RMK A01 T02150151  RH  067%=      5-min Rain = 0
KSB1 120816Z 28011KT 21/15 A3018 RMK A01 T02140154  RH  068%=      5-min Rain = 0
KSB1 120817Z 28010KT 21/16 A3019 RMK A01 T02100158  RH  072%=      5-min Rain = 0
KSB1 120818Z 29010KT 21/16 A3019 RMK A01 T02060160  RH  075%=      5-min Rain = 0
KSB1 120819Z 30010KT 20/16 A3019 RMK A01 T02040159  RH  076%=      5-min Rain = 0
KSB1 120820Z 30013KT 20/16 A3019 RMK A01 T02030157  RH  075%=      5-min Rain = 0
KSB1 120821Z 30012KT 20/15 A3019 RMK A01 T02040154  RH  073%=      5-min Rain = 0
KSB1 120822Z 30013KT 21/15 A3019 RMK A01 T02070152  RH  070%=      5-min Rain = 0
KSB1 120823Z 31012KT 21/15 A3019 RMK A01 T02100151  RH  069%=      5-min Rain = 0
KSB1 120824Z 31011KT 21/15 A3019 RMK A01 T02120152  RH  069%=      5-min Rain = 0
KSB1 120825Z 31010KT 21/15 A3019 RMK A01 T02130152  RH  068%=      5-min Rain = 0
KSB1 120826Z 32010KT 21/15 A3019 RMK A01 T02130152  RH  068%=      5-min Rain = 0
KSB1 120827Z 32010KT 21/15 A3019 RMK A01 T02130150  RH  067%=      5-min Rain = 0
KSB1 120828Z 31009KT 21/15 A3019 RMK A01 T02130151  RH  067%=      5-min Rain = 0
KSB1 120829Z 30009KT 21/15 A3019 RMK A01 T02130152  RH  068%=      5-min Rain = 0
KSB1 120830Z 31011KT 21/15 A3019 RMK A01 T02130154  RH  069%=      5-min Rain = 0
KSB1 120831Z 32011KT 21/15 A3019 RMK A01 T02120152  RH  068%=      5-min Rain = 0
KSB1 120832Z 31011KT 21/15 A3019 RMK A01 T02120151  RH  068%=      5-min Rain = 0
KSB1 120833Z 31010KT 21/15 A3019 RMK A01 T02120154  RH  070%=      5-min Rain = 0
KSB1 120834Z 32010KT 21/16 A3019 RMK A01 T02100155  RH  071%=      5-min Rain = 0
KSB1 120835Z 32012KT 21/15 A3019 RMK A01 T02090153  RH  070%=      5-min Rain = 0
KSB1 120836Z 32012KT 21/15 A3019 RMK A01 T02090153  RH  070%=      5-min Rain = 0
KSB1 120837Z 32013KT 21/15 A3019 RMK A01 T02090153  RH  070%=      5-min Rain = 0
KSB1 120838Z 32012KT 21/15 A3019 RMK A01 T02090154  RH  071%=      5-min Rain = 0
KSB1 120839Z 32011KT 21/16 A3019 RMK A01 T02080155  RH  071%=      5-min Rain = 0
KSB1 120840Z 32011KT 21/16 A3019 RMK A01 T02070156  RH  072%=      5-min Rain = 0
KSB1 120841Z 32013KT 21/16 A3019 RMK A01 T02070157  RH  073%=      5-min Rain = 0
KSB1 120842Z 32012KT 21/16 A3019 RMK A01 T02060157  RH  074%=      5-min Rain = 0
KSB1 120843Z 32012KT 21/16 A3019 RMK A01 T02060157  RH  074%=      5-min Rain = 0
KSB1 120844Z 32012KT 21/16 A3019 RMK A01 T02060157  RH  073%=      5-min Rain = 0
KSB1 120845Z 32012KT 21/16 A3019 RMK A01 T02060157  RH  074%=      5-min Rain = 0
KSB1 120846Z 32011KT 21/16 A3019 RMK A01 T02060158  RH  074%=      5-min Rain = 0
KSB1 120847Z 32012KT 21/16 A3019 RMK A01 T02060159  RH  074%=      5-min Rain = 0
KSB1 120848Z 33012KT 21/16 A3019 RMK A01 T02060159  RH  074%=      5-min Rain = 0
KSB1 120849Z 33012KT 21/16 A3019 RMK A01 T02060160  RH  075%=      5-min Rain = 0
KSB1 120850Z 33012KT 21/16 A3019 RMK A01 T02050161  RH  076%=      5-min Rain = 0
KSB1 120851Z 33012KT 21/16 A3019 RMK A01 T02050161  RH  076%=      5-min Rain = 0
KSB1 120852Z 33012KT 20/16 A3019 RMK A01 T02040161  RH  076%=      5-min Rain = 0
KSB1 120853Z 32011KT 20/16 A3019 RMK A01 T02040160  RH  076%=      5-min Rain = 0
KSB1 120854Z 33011KT 21/16 A3019 RMK A01 T02050160  RH  076%=      5-min Rain = 0
KSB1 120855Z 32012KT 21/16 A3019 RMK A01 T02050159  RH  075%=      5-min Rain = 0
KSB1 120856Z 32012KT 21/16 A3019 RMK A01 T02050159  RH  075%=      5-min Rain = 0
KSB1 120857Z 32013KT 21/16 A3019 RMK A01 T02060158  RH  074%=      5-min Rain = 0
KSB1 120858Z 32012KT 21/16 A3019 RMK A01 T02070157  RH  073%=      5-min Rain = 0
KSB1 120859Z 32012KT 21/16 A3019 RMK A01 T02080156  RH  072%=      5-min Rain = 0
KSB1 120900Z 32012KT 21/16 A3019 RMK A01 T02080156  RH  072%=      5-min Rain = 0
KSB1 120901Z 32012KT 21/16 A3019 RMK A01 T02090156  RH  072%=      5-min Rain = 0
KSB1 120902Z 32012KT 21/16 A3019 RMK A01 T02090155  RH  071%=      5-min Rain = 0
KSB1 120903Z 33011KT 21/16 A3019 RMK A01 T02100156  RH  071%=      5-min Rain = 0
KSB1 120904Z 32012KT 21/16 A3019 RMK A01 T02100156  RH  071%=      5-min Rain = 0
KSB1 120905Z 33012KT 21/16 A3019 RMK A01 T02100156  RH  071%=      5-min Rain = 0
KSB1 120906Z 33010KT 21/16 A3019 RMK A01 T02100157  RH  072%=      5-min Rain = 0
KSB1 120907Z 33011KT 21/16 A3019 RMK A01 T02090158  RH  072%=      5-min Rain = 0
KSB1 120908Z 32010KT 21/16 A3019 RMK A01 T02090157  RH  072%=      5-min Rain = 0
KSB1 120909Z 33010KT 21/16 A3019 RMK A01 T02090156  RH  071%=      5-min Rain = 0
KSB1 120910Z 32011KT 21/15 A3019 RMK A01 T02100154  RH  070%=      5-min Rain = 0
KSB1 120911Z 32009KT 21/15 A3019 RMK A01 T02110154  RH  070%=      5-min Rain = 0
KSB1 120912Z 32010KT 21/16 A3019 RMK A01 T02110155  RH  070%=      5-min Rain = 0
KSB1 120913Z 32009KT 21/16 A3019 RMK A01 T02120155  RH  070%=      5-min Rain = 0
KSB1 120914Z 32010KT 21/16 A3019 RMK A01 T02110156  RH  070%=      5-min Rain = 0
KSB1 120915Z 33010KT 21/16 A3019 RMK A01 T02110156  RH  071%=      5-min Rain = 0
KSB1 120916Z 33009KT 21/16 A3019 RMK A01 T02110158  RH  071%=      5-min Rain = 0
KSB1 120917Z 33009KT 21/16 A3019 RMK A01 T02100158  RH  072%=      5-min Rain = 0
KSB1 120918Z 33009KT 21/16 A3019 RMK A01 T02100158  RH  072%=      5-min Rain = 0
KSB1 120919Z 33009KT 21/16 A3019 RMK A01 T02100159  RH  073%=      5-min Rain = 0
KSB1 120920Z 33009KT 21/16 A3019 RMK A01 T02090160  RH  073%=      5-min Rain = 0
KSB1 120921Z 33010KT 21/16 A3019 RMK A01 T02090160  RH  073%=      5-min Rain = 0
KSB1 120922Z 33009KT 21/16 A3019 RMK A01 T02080160  RH  074%=      5-min Rain = 0
KSB1 120923Z 33009KT 21/16 A3019 RMK A01 T02080162  RH  074%=      5-min Rain = 0
KSB1 120924Z 32008KT 21/16 A3019 RMK A01 T02080161  RH  074%=      5-min Rain = 0
KSB1 120925Z 33010KT 21/16 A3019 RMK A01 T02080158  RH  073%=      5-min Rain = 0
KSB1 120926Z 33009KT 21/16 A3019 RMK A01 T02090158  RH  073%=      5-min Rain = 0
KSB1 120927Z 32010KT 21/16 A3019 RMK A01 T02090158  RH  072%=      5-min Rain = 0
KSB1 120928Z 32009KT 21/16 A3019 RMK A01 T02090156  RH  071%=      5-min Rain = 0
KSB1 120929Z 32010KT 21/16 A3019 RMK A01 T02100155  RH  071%=      5-min Rain = 0
KSB1 120930Z 33010KT 21/16 A3019 RMK A01 T02110155  RH  070%=      5-min Rain = 0
KSB1 120931Z 32009KT 21/16 A3019 RMK A01 T02120155  RH  070%=      5-min Rain = 0
KSB1 120932Z 32010KT 21/16 A3019 RMK A01 T02120155  RH  070%=      5-min Rain = 0
KSB1 120933Z 32010KT 21/16 A3019 RMK A01 T02120155  RH  070%=      5-min Rain = 0
KSB1 120934Z 32010KT 21/15 A3019 RMK A01 T02120154  RH  070%=      5-min Rain = 0
KSB1 120935Z 32010KT 21/15 A3019 RMK A01 T02120153  RH  069%=      5-min Rain = 0
KSB1 120936Z 32010KT 21/15 A3019 RMK A01 T02130152  RH  068%=      5-min Rain = 0
KSB1 120937Z 32008KT 21/15 A3019 RMK A01 T02130152  RH  068%=      5-min Rain = 0
KSB1 120938Z 31008KT 21/15 A3019 RMK A01 T02130152  RH  068%=      5-min Rain = 0
KSB1 120939Z 32007KT 21/15 A3019 RMK A01 T02140152  RH  068%=      5-min Rain = 0
KSB1 120940Z 32008KT 21/15 A3019 RMK A01 T02140152  RH  068%=      5-min Rain = 0
KSB1 120941Z 33008KT 21/15 A3019 RMK A01 T02140151  RH  067%=      5-min Rain = 0
KSB1 120942Z 33009KT 21/15 A3019 RMK A01 T02140151  RH  067%=      5-min Rain = 0
KSB1 120943Z 33008KT 21/15 A3019 RMK A01 T02140152  RH  068%=      5-min Rain = 0
KSB1 120944Z 34007KT 21/15 A3019 RMK A01 T02140153  RH  068%=      5-min Rain = 0
KSB1 120945Z 34007KT 21/15 A3019 RMK A01 T02140154  RH  069%=      5-min Rain = 0
KSB1 120946Z 00005KT 21/16 A3019 RMK A01 T02130155  RH  070%=      5-min Rain = 0
KSB1 120947Z 01005KT 21/16 A3019 RMK A01 T02120157  RH  071%=      5-min Rain = 0
KSB1 120948Z 01006KT 21/16 A3019 RMK A01 T02110159  RH  072%=      5-min Rain = 0
KSB1 120949Z 00006KT 21/16 A3019 RMK A01 T02100159  RH  073%=      5-min Rain = 0
KSB1 120950Z 36005KT 21/16 A3019 RMK A01 T02090160  RH  073%=      5-min Rain = 0
KSB1 120951Z 00004KT 21/16 A3019 RMK A01 T02080159  RH  073%=      5-min Rain = 0
KSB1 120952Z 01005KT 21/16 A3019 RMK A01 T02080160  RH  074%=      5-min Rain = 0
KSB1 120953Z 02005KT 21/16 A3019 RMK A01 T02080161  RH  074%=      5-min Rain = 0
KSB1 120954Z 04006KT 21/16 A3019 RMK A01 T02070161  RH  075%=      5-min Rain = 0
KSB1 120955Z 04006KT 21/16 A3019 RMK A01 T02070161  RH  075%=      5-min Rain = 0
KSB1 120956Z 04006KT 21/16 A3019 RMK A01 T02060161  RH  075%=      5-min Rain = 0
KSB1 120957Z 03006KT 21/16 A3019 RMK A01 T02050160  RH  075%=      5-min Rain = 0
KSB1 120958Z 02006KT 21/16 A3019 RMK A01 T02050160  RH  075%=      5-min Rain = 0
KSB1 120959Z 01006KT 21/16 A3019 RMK A01 T02050159  RH  075%=      5-min Rain = 0
KSB1 121000Z 01006KT 21/16 A3019 RMK A01 T02050160  RH  075%=      5-min Rain = 0
KSB1 121001Z 01005KT 21/16 A3019 RMK A01 T02050160  RH  075%=      5-min Rain = 0
KSB1 121002Z 01005KT 21/16 A3019 RMK A01 T02050160  RH  075%=      5-min Rain = 0
KSB1 121003Z 01005KT 21/16 A3019 RMK A01 T02050160  RH  075%=      5-min Rain = 0
KSB1 121004Z 01004KT 21/16 A3019 RMK A01 T02050160  RH  075%=      5-min Rain = 0
KSB1 121005Z 35004KT 21/16 A3019 RMK A01 T02050159  RH  075%=      5-min Rain = 0
KSB1 121006Z 33004KT 21/16 A3019 RMK A01 T02050160  RH  075%=      5-min Rain = 0
KSB1 121007Z 33004KT 21/16 A302 RMK A01 T02050161  RH  076%=      5-min Rain = 0
KSB1 121008Z 32004KT 21/16 A302 RMK A01 T02050162  RH  076%=      5-min Rain = 0
KSB1 121009Z 33003KT 21/16 A302 RMK A01 T02050161  RH  076%=      5-min Rain = 0
KSB1 121010Z 32003KT 21/16 A302 RMK A01 T02050161  RH  076%=      5-min Rain = 0
KSB1 121011Z 33002KT 21/16 A302 RMK A01 T02050161  RH  076%=      5-min Rain = 0
KSB1 121012Z 33003KT 21/16 A302 RMK A01 T02050162  RH  076%=      5-min Rain = 0
KSB1 121013Z 35002KT 21/16 A302 RMK A01 T02050162  RH  076%=      5-min Rain = 0
KSB1 121014Z 01001KT 21/16 A302 RMK A01 T02050163  RH  077%=      5-min Rain = 0
KSB1 121015Z 06002KT 21/16 A302 RMK A01 T02050163  RH  077%=      5-min Rain = 0
KSB1 121016Z 05002KT 21/16 A302 RMK A01 T02050163  RH  077%=      5-min Rain = 0
KSB1 121017Z 05005KT 20/16 A302 RMK A01 T02040162  RH  077%=      5-min Rain = 0
KSB1 121018Z 05005KT 20/16 A302 RMK A01 T02030160  RH  076%=      5-min Rain = 0
KSB1 121019Z 04005KT 20/16 A302 RMK A01 T02030161  RH  077%=      5-min Rain = 0
KSB1 121020Z 04005KT 20/16 A302 RMK A01 T02020161  RH  077%=      5-min Rain = 0
KSB1 121021Z 03004KT 20/16 A3021 RMK A01 T02020161  RH  077%=      5-min Rain = 0
KSB1 121022Z 03002KT 20/16 A3021 RMK A01 T02010160  RH  077%=      5-min Rain = 0
KSB1 121023Z 28001KT 20/16 A3021 RMK A01 T02010161  RH  077%=      5-min Rain = 0
KSB1 121024Z 23004KT 20/16 A3021 RMK A01 T02020162  RH  078%=      5-min Rain = 0
KSB1 121025Z 20002KT 20/16 A3021 RMK A01 T02020163  RH  078%=      5-min Rain = 0
KSB1 121026Z 18001KT 20/16 A3021 RMK A01 T02020160  RH  077%=      5-min Rain = 0
KSB1 121027Z 14001KT 20/16 A3021 RMK A01 T02020161  RH  077%=      5-min Rain = 0
KSB1 121028Z 13001KT 20/16 A3021 RMK A01 T02020161  RH  077%=      5-min Rain = 0
KSB1 121029Z 21000KT 20/16 A3021 RMK A01 T02020160  RH  077%=      5-min Rain = 0
KSB1 121030Z 07001KT 20/16 A3021 RMK A01 T02020160  RH  077%=      5-min Rain = 0
KSB1 121031Z 06001KT 20/16 A3021 RMK A01 T02020162  RH  077%=      5-min Rain = 0
KSB1 121032Z 04002KT 20/16 A3021 RMK A01 T02020161  RH  077%=      5-min Rain = 0
KSB1 121033Z 03002KT 20/16 A3021 RMK A01 T02020162  RH  077%=      5-min Rain = 0
KSB1 121034Z 02002KT 20/16 A3021 RMK A01 T02020162  RH  078%=      5-min Rain = 0
KSB1 121035Z 03002KT 20/16 A3021 RMK A01 T02020162  RH  078%=      5-min Rain = 0
KSB1 121036Z 03001KT 20/16 A3021 RMK A01 T02020163  RH  078%=      5-min Rain = 0
KSB1 121037Z 04001KT 20/16 A3021 RMK A01 T02020162  RH  078%=      5-min Rain = 0
KSB1 121038Z 34002KT 20/16 A3021 RMK A01 T02020163  RH  078%=      5-min Rain = 0
KSB1 121039Z 34002KT 20/16 A3021 RMK A01 T02010161  RH  078%=      5-min Rain = 0
KSB1 121040Z 35003KT 20/16 A3021 RMK A01 T02020161  RH  077%=      5-min Rain = 0
KSB1 121041Z 00003KT 20/16 A3021 RMK A01 T02020161  RH  077%=      5-min Rain = 0
KSB1 121042Z 36003KT 20/16 A3021 RMK A01 T02020162  RH  078%=      5-min Rain = 0
KSB1 121043Z 36004KT 20/16 A3021 RMK A01 T02020162  RH  078%=      5-min Rain = 0
KSB1 121044Z 01004KT 20/16 A302 RMK A01 T02030162  RH  078%=      5-min Rain = 0
KSB1 121045Z 00004KT 20/16 A302 RMK A01 T02020162  RH  078%=      5-min Rain = 0
KSB1 121046Z 36005KT 20/16 A302 RMK A01 T02020163  RH  078%=      5-min Rain = 0
KSB1 121047Z 35006KT 20/16 A302 RMK A01 T02030161  RH  077%=      5-min Rain = 0
KSB1 121048Z 35007KT 20/16 A302 RMK A01 T02040159  RH  076%=      5-min Rain = 0
KSB1 121049Z 35007KT 21/16 A302 RMK A01 T02050158  RH  074%=      5-min Rain = 0
KSB1 121050Z 35007KT 21/16 A302 RMK A01 T02060157  RH  074%=      5-min Rain = 0
KSB1 121051Z 35008KT 21/16 A302 RMK A01 T02070156  RH  073%=      5-min Rain = 0
KSB1 121052Z 34007KT 21/16 A302 RMK A01 T02070156  RH  072%=      5-min Rain = 0
KSB1 121053Z 33008KT 21/16 A302 RMK A01 T02070155  RH  072%=      5-min Rain = 0
KSB1 121054Z 33008KT 21/15 A302 RMK A01 T02080153  RH  071%=      5-min Rain = 0
KSB1 121055Z 34008KT 21/15 A302 RMK A01 T02080153  RH  071%=      5-min Rain = 0
KSB1 121056Z 34006KT 21/16 A302 RMK A01 T02090155  RH  071%=      5-min Rain = 0
KSB1 121057Z 35007KT 21/16 A302 RMK A01 T02090155  RH  071%=      5-min Rain = 0
KSB1 121058Z 34007KT 21/16 A302 RMK A01 T02090155  RH  071%=      5-min Rain = 0
KSB1 121059Z 34009KT 21/16 A302 RMK A01 T02090156  RH  072%=      5-min Rain = 0
KSB1 121100Z 34010KT 21/16 A302 RMK A01 T02080155  RH  072%=      5-min Rain = 0
KSB1 121101Z 34009KT 21/16 A302 RMK A01 T02070155  RH  072%=      5-min Rain = 0
KSB1 121102Z 34007KT 21/16 A302 RMK A01 T02070156  RH  072%=      5-min Rain = 0
KSB1 121103Z 34007KT 21/16 A302 RMK A01 T02060156  RH  073%=      5-min Rain = 0
KSB1 121104Z 34006KT 21/16 A302 RMK A01 T02060156  RH  073%=      5-min Rain = 0
KSB1 121105Z 35005KT 21/16 A302 RMK A01 T02050156  RH  073%=      5-min Rain = 0
KSB1 121106Z 00005KT 21/16 A302 RMK A01 T02050156  RH  073%=      5-min Rain = 0
KSB1 121107Z 35005KT 21/16 A302 RMK A01 T02050156  RH  073%=      5-min Rain = 0
KSB1 121108Z 00003KT 21/16 A302 RMK A01 T02050156  RH  073%=      5-min Rain = 0
KSB1 121109Z 00003KT 21/16 A302 RMK A01 T02050155  RH  073%=      5-min Rain = 0
KSB1 121110Z 01003KT 21/16 A302 RMK A01 T02050155  RH  073%=      5-min Rain = 0
KSB1 121111Z 01002KT 21/16 A302 RMK A01 T02050155  RH  073%=      5-min Rain = 0
KSB1 121112Z 36003KT 21/16 A302 RMK A01 T02050155  RH  073%=      5-min Rain = 0
KSB1 121113Z 35002KT 21/16 A302 RMK A01 T02050155  RH  073%=      5-min Rain = 0
KSB1 121114Z 01002KT 20/16 A302 RMK A01 T02040155  RH  073%=      5-min Rain = 0
KSB1 121115Z 35003KT 20/16 A302 RMK A01 T02040155  RH  073%=      5-min Rain = 0
KSB1 121116Z 00003KT 20/16 A302 RMK A01 T02040156  RH  074%=      5-min Rain = 0
KSB1 121117Z 35005KT 20/16 A302 RMK A01 T02040156  RH  074%=      5-min Rain = 0
KSB1 121118Z 02002KT 20/16 A302 RMK A01 T02040157  RH  074%=      5-min Rain = 0
KSB1 121119Z 36002KT 20/16 A302 RMK A01 T02030156  RH  074%=      5-min Rain = 0
KSB1 121120Z 01002KT 20/16 A302 RMK A01 T02040157  RH  075%=      5-min Rain = 0
KSB1 121121Z 00003KT 20/16 A302 RMK A01 T02030159  RH  076%=      5-min Rain = 0
KSB1 121122Z 00004KT 20/16 A302 RMK A01 T02030158  RH  075%=      5-min Rain = 0
KSB1 121123Z 01004KT 20/16 A302 RMK A01 T02030158  RH  075%=      5-min Rain = 0
KSB1 121124Z 01005KT 20/16 A302 RMK A01 T02030157  RH  075%=      5-min Rain = 0
KSB1 121125Z 01003KT 20/16 A302 RMK A01 T02030157  RH  075%=      5-min Rain = 0
KSB1 121126Z 00004KT 20/16 A302 RMK A01 T02030157  RH  074%=      5-min Rain = 0
KSB1 121127Z 34004KT 20/16 A3021 RMK A01 T02030156  RH  074%=      5-min Rain = 0
KSB1 121128Z 34004KT 20/16 A3021 RMK A01 T02040158  RH  075%=      5-min Rain = 0
KSB1 121129Z 34005KT 20/16 A3021 RMK A01 T02030157  RH  074%=      5-min Rain = 0
KSB1 121130Z 34004KT 20/16 A3021 RMK A01 T02030157  RH  075%=      5-min Rain = 0
KSB1 121131Z 34004KT 20/16 A3021 RMK A01 T02030158  RH  075%=      5-min Rain = 0
KSB1 121132Z 33004KT 20/16 A3021 RMK A01 T02030158  RH  075%=      5-min Rain = 0
KSB1 121133Z 33004KT 20/16 A3021 RMK A01 T02030158  RH  075%=      5-min Rain = 0
KSB1 121134Z 33004KT 20/16 A3021 RMK A01 T02030160  RH  076%=      5-min Rain = 0
KSB1 121135Z 31002KT 20/16 A3021 RMK A01 T02030159  RH  076%=      5-min Rain = 0
KSB1 121136Z 27001KT 20/16 A3021 RMK A01 T02020160  RH  077%=      5-min Rain = 0
KSB1 121137Z 25003KT 20/16 A3021 RMK A01 T02020160  RH  077%=      5-min Rain = 0
KSB1 121138Z 24002KT 20/16 A3021 RMK A01 T02010161  RH  077%=      5-min Rain = 0
KSB1 121139Z 09001KT 20/16 A3021 RMK A01 T02010162  RH  078%=      5-min Rain = 0
KSB1 121140Z 08003KT 20/16 A3021 RMK A01 T02000164  RH  080%=      5-min Rain = 0
KSB1 121141Z 08003KT 20/17 A3021 RMK A01 T02000165  RH  081%=      5-min Rain = 0
KSB1 121142Z 08003KT 20/17 A3021 RMK A01 T01990166  RH  081%=      5-min Rain = 0
KSB1 121143Z 08002KT 20/17 A3021 RMK A01 T01980166  RH  082%=      5-min Rain = 0
KSB1 121144Z 07002KT 20/17 A3021 RMK A01 T01970166  RH  082%=      5-min Rain = 0
KSB1 121145Z 05002KT 20/17 A3021 RMK A01 T01970168  RH  083%=      5-min Rain = 0
KSB1 121146Z 01001KT 20/17 A3021 RMK A01 T01970166  RH  082%=      5-min Rain = 0
KSB1 121147Z 01001KT 20/16 A3021 RMK A01 T01970164  RH  081%=      5-min Rain = 0
KSB1 121148Z 00000KT 20/16 A3021 RMK A01 T01960163  RH  081%=      5-min Rain = 0
KSB1 121149Z 00000KT 20/16 A3021 RMK A01 T01960163  RH  081%=      5-min Rain = 0
KSB1 121150Z 22000KT 20/16 A3021 RMK A01 T01970164  RH  082%=      5-min Rain = 0
KSB1 121151Z 21000KT 20/17 A3021 RMK A01 T01970169  RH  084%=      5-min Rain = 0
KSB1 121152Z 00000KT 20/17 A3021 RMK A01 T01960169  RH  084%=      5-min Rain = 0
KSB1 121153Z 00000KT 20/17 A3021 RMK A01 T01960167  RH  083%=      5-min Rain = 0
KSB1 121154Z 21001KT 20/17 A3021 RMK A01 T01960168  RH  084%=      5-min Rain = 0
KSB1 121155Z 22000KT 20/17 A3021 RMK A01 T01960168  RH  084%=      5-min Rain = 0
KSB1 121156Z 18000KT 20/17 A3021 RMK A01 T01960169  RH  085%=      5-min Rain = 0
KSB1 121157Z 16001KT 20/17 A3021 RMK A01 T01950168  RH  084%=      5-min Rain = 0
KSB1 121158Z 16001KT 20/17 A3021 RMK A01 T01950167  RH  084%=      5-min Rain = 0
KSB1 121159Z 15000KT 20/17 A3021 RMK A01 T01950167  RH  084%=      5-min Rain = 0
KSB1 121200Z 00000KT 19/17 A3021 RMK A01 T01940167  RH  084%=      5-min Rain = 0
KSB1 121201Z 00000KT 20/17 A3021 RMK A01 T01950166  RH  084%=      5-min Rain = 0
KSB1 121202Z 00000KT 20/17 A3021 RMK A01 T01950167  RH  084%=      5-min Rain = 0
KSB1 121203Z 00000KT 20/17 A3021 RMK A01 T01950167  RH  084%=      5-min Rain = 0
KSB1 121204Z 00000KT 20/17 A3021 RMK A01 T01950166  RH  083%=      5-min Rain = 0
KSB1 121205Z 05000KT 20/17 A3021 RMK A01 T01950165  RH  083%=      5-min Rain = 0
KSB1 121206Z 05001KT 20/17 A3021 RMK A01 T01950168  RH  084%=      5-min Rain = 0
KSB1 121207Z 05001KT 20/17 A3021 RMK A01 T01950170  RH  086%=      5-min Rain = 0
KSB1 121208Z 05000KT 20/17 A3021 RMK A01 T01950170  RH  086%=      5-min Rain = 0
KSB1 121209Z 05000KT 20/17 A3021 RMK A01 T01950171  RH  086%=      5-min Rain = 0
KSB1 121210Z 03001KT 20/17 A3021 RMK A01 T01950171  RH  086%=      5-min Rain = 0
KSB1 121211Z 03001KT 20/17 A3022 RMK A01 T01950173  RH  087%=      5-min Rain = 0
KSB1 121212Z 04001KT 20/17 A3022 RMK A01 T01950173  RH  087%=      5-min Rain = 0
KSB1 121213Z 03001KT 19/17 A3022 RMK A01 T01940170  RH  086%=      5-min Rain = 0
KSB1 121214Z 05001KT 19/17 A3022 RMK A01 T01940168  RH  085%=      5-min Rain = 0
KSB1 121215Z 06001KT 19/17 A3022 RMK A01 T01940168  RH  085%=      5-min Rain = 0
KSB1 121216Z 05001KT 19/17 A3022 RMK A01 T01940170  RH  086%=      5-min Rain = 0
KSB1 121217Z 04001KT 19/17 A3022 RMK A01 T01940170  RH  086%=      5-min Rain = 0
KSB1 121218Z 04001KT 19/17 A3022 RMK A01 T01940169  RH  086%=      5-min Rain = 0
KSB1 121219Z 06002KT 19/17 A3022 RMK A01 T01940170  RH  086%=      5-min Rain = 0
KSB1 121220Z 06002KT 19/17 A3022 RMK A01 T01940172  RH  087%=      5-min Rain = 0
KSB1 121221Z 05002KT 19/17 A3022 RMK A01 T01940172  RH  087%=      5-min Rain = 0
KSB1 121222Z 05002KT 19/17 A3022 RMK A01 T01930173  RH  088%=      5-min Rain = 0
KSB1 121223Z 05001KT 19/17 A3022 RMK A01 T01930173  RH  088%=      5-min Rain = 0
KSB1 121224Z 05002KT 19/17 A3022 RMK A01 T01930172  RH  088%=      5-min Rain = 0
KSB1 121225Z 04002KT 19/17 A3022 RMK A01 T01930172  RH  088%=      5-min Rain = 0
KSB1 121226Z 05002KT 19/17 A3022 RMK A01 T01920172  RH  088%=      5-min Rain = 0
KSB1 121227Z 05003KT 19/17 A3022 RMK A01 T01920172  RH  088%=      5-min Rain = 0
KSB1 121228Z 04003KT 19/17 A3022 RMK A01 T01920171  RH  088%=      5-min Rain = 0
KSB1 121229Z 03003KT 19/17 A3022 RMK A01 T01920171  RH  088%=      5-min Rain = 0
KSB1 121230Z 03003KT 19/17 A3022 RMK A01 T01910172  RH  088%=      5-min Rain = 0
KSB1 121231Z 03003KT 19/17 A3022 RMK A01 T01910171  RH  088%=      5-min Rain = 0
KSB1 121232Z 04004KT 19/17 A3022 RMK A01 T01910171  RH  088%=      5-min Rain = 0
KSB1 121233Z 04004KT 19/17 A3022 RMK A01 T01900170  RH  088%=      5-min Rain = 0
KSB1 121234Z 04004KT 19/17 A3022 RMK A01 T01900170  RH  088%=      5-min Rain = 0
KSB1 121235Z 04004KT 19/17 A3022 RMK A01 T01900171  RH  088%=      5-min Rain = 0
KSB1 121236Z 04003KT 19/17 A3022 RMK A01 T01900171  RH  089%=      5-min Rain = 0
KSB1 121237Z 03003KT 19/17 A3022 RMK A01 T01900171  RH  089%=      5-min Rain = 0
KSB1 121238Z 03003KT 19/17 A3022 RMK A01 T01900172  RH  089%=      5-min Rain = 0
KSB1 121239Z 04003KT 19/17 A3022 RMK A01 T01900172  RH  090%=      5-min Rain = 0
KSB1 121240Z 04003KT 19/17 A3022 RMK A01 T01900172  RH  090%=      5-min Rain = 0
KSB1 121241Z 05003KT 19/17 A3022 RMK A01 T01900173  RH  090%=      5-min Rain = 0
KSB1 121242Z 05003KT 19/17 A3022 RMK A01 T01900174  RH  090%=      5-min Rain = 0
KSB1 121243Z 05003KT 19/17 A3022 RMK A01 T01900174  RH  091%=      5-min Rain = 0
KSB1 121244Z 05004KT 19/17 A3022 RMK A01 T01900174  RH  091%=      5-min Rain = 0
KSB1 121245Z 05003KT 19/17 A3022 RMK A01 T01890173  RH  090%=      5-min Rain = 0
KSB1 121246Z 05004KT 19/17 A3022 RMK A01 T01890172  RH  090%=      5-min Rain = 0
KSB1 121247Z 05004KT 19/17 A3022 RMK A01 T01890172  RH  090%=      5-min Rain = 0
KSB1 121248Z 04004KT 19/17 A3022 RMK A01 T01890172  RH  090%=      5-min Rain = 0
KSB1 121249Z 05004KT 19/17 A3022 RMK A01 T01880172  RH  090%=      5-min Rain = 0
KSB1 121250Z 04004KT 19/17 A3022 RMK A01 T01880171  RH  090%=      5-min Rain = 0
KSB1 121251Z 04004KT 19/17 A3022 RMK A01 T01880170  RH  090%=      5-min Rain = 0
KSB1 121252Z 04004KT 19/17 A3022 RMK A01 T01880171  RH  090%=      5-min Rain = 0
KSB1 121253Z 04003KT 19/17 A3022 RMK A01 T01880169  RH  089%=      5-min Rain = 0
KSB1 121254Z 04003KT 19/17 A3022 RMK A01 T01880170  RH  090%=      5-min Rain = 0
KSB1 121255Z 04004KT 19/17 A3022 RMK A01 T01880170  RH  089%=      5-min Rain = 0
KSB1 121256Z 04004KT 19/17 A3022 RMK A01 T01880171  RH  090%=      5-min Rain = 0
KSB1 121257Z 04004KT 19/17 A3022 RMK A01 T01880170  RH  089%=      5-min Rain = 0
KSB1 121258Z 04003KT 19/17 A3022 RMK A01 T01880170  RH  089%=      5-min Rain = 0
KSB1 121259Z 05003KT 19/17 A3022 RMK A01 T01880170  RH  089%=      5-min Rain = 0
KSB1 121300Z 04004KT 19/17 A3022 RMK A01 T01880170  RH  089%=      5-min Rain = 0
KSB1 121301Z 05004KT 19/17 A3022 RMK A01 T01880169  RH  088%=      5-min Rain = 0
KSB1 121302Z 04003KT 19/17 A3022 RMK A01 T01880168  RH  088%=      5-min Rain = 0
KSB1 121303Z 04004KT 19/17 A3022 RMK A01 T01880167  RH  088%=      5-min Rain = 0
KSB1 121304Z 04003KT 19/17 A3022 RMK A01 T01880168  RH  088%=      5-min Rain = 0
KSB1 121305Z 04003KT 19/17 A3022 RMK A01 T01880169  RH  088%=      5-min Rain = 0
KSB1 121306Z 04003KT 19/17 A3022 RMK A01 T01880168  RH  088%=      5-min Rain = 0
KSB1 121307Z 03004KT 19/17 A3022 RMK A01 T01890169  RH  088%=      5-min Rain = 0
KSB1 121308Z 03004KT 19/17 A3022 RMK A01 T01890169  RH  088%=      5-min Rain = 0
KSB1 121309Z 02003KT 19/17 A3022 RMK A01 T01890169  RH  088%=      5-min Rain = 0
KSB1 121310Z 02004KT 19/17 A3022 RMK A01 T01890170  RH  089%=      5-min Rain = 0
KSB1 121311Z 01004KT 19/17 A3022 RMK A01 T01890169  RH  088%=      5-min Rain = 0
KSB1 121312Z 01004KT 19/17 A3022 RMK A01 T01890167  RH  087%=      5-min Rain = 0
KSB1 121313Z 02004KT 19/17 A3022 RMK A01 T01900168  RH  087%=      5-min Rain = 0
KSB1 121314Z 03004KT 19/17 A3022 RMK A01 T01900168  RH  087%=      5-min Rain = 0
KSB1 121315Z 03005KT 19/17 A3022 RMK A01 T01900168  RH  087%=      5-min Rain = 0
KSB1 121316Z 03004KT 19/17 A3022 RMK A01 T01900166  RH  086%=      5-min Rain = 0
KSB1 121317Z 03005KT 19/17 A3022 RMK A01 T01910167  RH  086%=      5-min Rain = 0
KSB1 121318Z 03004KT 19/17 A3022 RMK A01 T01910166  RH  085%=      5-min Rain = 0
KSB1 121319Z 03004KT 19/17 A3022 RMK A01 T01920168  RH  086%=      5-min Rain = 0
KSB1 121320Z 03004KT 19/17 A3022 RMK A01 T01920167  RH  086%=      5-min Rain = 0
KSB1 121321Z 04005KT 19/17 A3022 RMK A01 T01920167  RH  085%=      5-min Rain = 0
KSB1 121322Z 04004KT 19/17 A3022 RMK A01 T01920167  RH  085%=      5-min Rain = 0
KSB1 121323Z 04004KT 19/17 A3022 RMK A01 T01920167  RH  085%=      5-min Rain = 0
KSB1 121324Z 04004KT 19/17 A3022 RMK A01 T01920167  RH  085%=      5-min Rain = 0
KSB1 121325Z 04004KT 19/17 A3022 RMK A01 T01920166  RH  085%=      5-min Rain = 0
KSB1 121326Z 04004KT 19/17 A3022 RMK A01 T01930167  RH  085%=      5-min Rain = 0
KSB1 121327Z 04004KT 19/17 A3022 RMK A01 T01930168  RH  085%=      5-min Rain = 0
KSB1 121328Z 03004KT 19/17 A3022 RMK A01 T01940167  RH  085%=      5-min Rain = 0
KSB1 121329Z 03004KT 19/17 A3022 RMK A01 T01940166  RH  084%=      5-min Rain = 0
KSB1 121330Z 03004KT 19/17 A3022 RMK A01 T01940166  RH  084%=      5-min Rain = 0
KSB1 121331Z 04003KT 19/17 A3022 RMK A01 T01940165  RH  083%=      5-min Rain = 0
KSB1 121332Z 03004KT 20/17 A3022 RMK A01 T01950167  RH  084%=      5-min Rain = 0
KSB1 121333Z 04003KT 20/17 A3022 RMK A01 T01950167  RH  084%=      5-min Rain = 0
KSB1 121334Z 04003KT 20/17 A3022 RMK A01 T01960167  RH  084%=      5-min Rain = 0
KSB1 121335Z 05003KT 20/17 A3022 RMK A01 T01960167  RH  083%=      5-min Rain = 0
KSB1 121336Z 05003KT 20/17 A3022 RMK A01 T01960167  RH  083%=      5-min Rain = 0
KSB1 121337Z 05004KT 20/17 A3022 RMK A01 T01960165  RH  082%=      5-min Rain = 0
KSB1 121338Z 04004KT 20/17 A3022 RMK A01 T01970165  RH  082%=      5-min Rain = 0
KSB1 121339Z 05004KT 20/17 A3022 RMK A01 T01970167  RH  083%=      5-min Rain = 0
KSB1 121340Z 06005KT 20/17 A3021 RMK A01 T01970165  RH  082%=      5-min Rain = 0
KSB1 121341Z 06004KT 20/17 A3021 RMK A01 T01970166  RH  082%=      5-min Rain = 0
KSB1 121342Z 06004KT 20/17 A3022 RMK A01 T01970166  RH  082%=      5-min Rain = 0
KSB1 121343Z 05003KT 20/17 A3022 RMK A01 T01970167  RH  083%=      5-min Rain = 0
KSB1 121344Z 04003KT 20/17 A3022 RMK A01 T01980168  RH  083%=      5-min Rain = 0
KSB1 121345Z 04003KT 20/17 A3022 RMK A01 T01980165  RH  082%=      5-min Rain = 0
KSB1 121346Z 03003KT 20/17 A3022 RMK A01 T01980165  RH  081%=      5-min Rain = 0
KSB1 121347Z 04002KT 20/17 A3022 RMK A01 T01980165  RH  081%=      5-min Rain = 0
KSB1 121348Z 04001KT 20/17 A3022 RMK A01 T01990165  RH  081%=      5-min Rain = 0
KSB1 121349Z 08001KT 20/17 A3022 RMK A01 T01990165  RH  080%=      5-min Rain = 0
KSB1 121350Z 11000KT 20/17 A3022 RMK A01 T01990165  RH  081%=      5-min Rain = 0
KSB1 121351Z 13001KT 20/17 A3022 RMK A01 T02000167  RH  081%=      5-min Rain = 0
KSB1 121352Z 14001KT 20/16 A3022 RMK A01 T02000164  RH  080%=      5-min Rain = 0
KSB1 121353Z 13000KT 20/16 A3022 RMK A01 T02000164  RH  080%=      5-min Rain = 0
KSB1 121354Z 11000KT 20/16 A3022 RMK A01 T02010164  RH  079%=      5-min Rain = 0
KSB1 121355Z 09000KT 20/16 A3022 RMK A01 T02010162  RH  079%=      5-min Rain = 0
KSB1 121356Z 08001KT 20/16 A3022 RMK A01 T02010162  RH  078%=      5-min Rain = 0
KSB1 121357Z 09001KT 20/16 A3022 RMK A01 T02010162  RH  078%=      5-min Rain = 0
KSB1 121358Z 09000KT 20/16 A3022 RMK A01 T02010163  RH  079%=      5-min Rain = 0
KSB1 121359Z 00000KT 20/16 A3022 RMK A01 T02010163  RH  079%=      5-min Rain = 0
KSB1 121400Z 00000KT 20/16 A3022 RMK A01 T02010162  RH  078%=      5-min Rain = 0
KSB1 121401Z 00000KT 20/16 A3022 RMK A01 T02020161  RH  077%=      5-min Rain = 0
KSB1 121402Z 12000KT 20/16 A3022 RMK A01 T02020162  RH  078%=      5-min Rain = 0
KSB1 121403Z 11000KT 20/16 A3022 RMK A01 T02030163  RH  078%=      5-min Rain = 0
KSB1 121404Z 11000KT 20/16 A3022 RMK A01 T02030163  RH  077%=      5-min Rain = 0
KSB1 121405Z 15000KT 20/16 A3023 RMK A01 T02030164  RH  078%=      5-min Rain = 0
KSB1 121406Z 16001KT 20/16 A3023 RMK A01 T02040164  RH  078%=      5-min Rain = 0
KSB1 121407Z 15002KT 20/16 A3023 RMK A01 T02040163  RH  078%=      5-min Rain = 0
KSB1 121408Z 15002KT 20/16 A3023 RMK A01 T02040163  RH  077%=      5-min Rain = 0
KSB1 121409Z 14002KT 21/17 A3023 RMK A01 T02050165  RH  078%=      5-min Rain = 0
KSB1 121410Z 12002KT 21/16 A3023 RMK A01 T02050162  RH  077%=      5-min Rain = 0
KSB1 121411Z 10001KT 21/16 A3023 RMK A01 T02050162  RH  076%=      5-min Rain = 0
KSB1 121412Z 08001KT 21/16 A3023 RMK A01 T02050162  RH  076%=      5-min Rain = 0
KSB1 121413Z 08001KT 21/16 A3023 RMK A01 T02050161  RH  076%=      5-min Rain = 0
KSB1 121414Z 07001KT 21/16 A3023 RMK A01 T02050163  RH  077%=      5-min Rain = 0
KSB1 121415Z 05001KT 21/16 A3023 RMK A01 T02050163  RH  077%=      5-min Rain = 0
KSB1 121416Z 04002KT 21/16 A3023 RMK A01 T02050163  RH  077%=      5-min Rain = 0
KSB1 121417Z 05003KT 21/17 A3023 RMK A01 T02060165  RH  077%=      5-min Rain = 0
KSB1 121418Z 06002KT 21/16 A3023 RMK A01 T02070163  RH  076%=      5-min Rain = 0
KSB1 121419Z 04002KT 21/16 A3023 RMK A01 T02070163  RH  076%=      5-min Rain = 0
KSB1 121420Z 04003KT 21/16 A3023 RMK A01 T02070163  RH  076%=      5-min Rain = 0
KSB1 121421Z 04003KT 21/16 A3023 RMK A01 T02070161  RH  075%=      5-min Rain = 0
KSB1 121422Z 04003KT 21/16 A3023 RMK A01 T02070161  RH  075%=      5-min Rain = 0
KSB1 121423Z 03002KT 21/16 A3023 RMK A01 T02070161  RH  075%=      5-min Rain = 0
KSB1 121424Z 04001KT 21/16 A3023 RMK A01 T02070162  RH  075%=      5-min Rain = 0
KSB1 121425Z 03002KT 21/16 A3023 RMK A01 T02070161  RH  075%=      5-min Rain = 0
KSB1 121426Z 02003KT 21/16 A3023 RMK A01 T02070161  RH  075%=      5-min Rain = 0
KSB1 121427Z 01003KT 21/16 A3023 RMK A01 T02080161  RH  075%=      5-min Rain = 0
KSB1 121428Z 02003KT 21/16 A3023 RMK A01 T02080161  RH  075%=      5-min Rain = 0
KSB1 121429Z 02003KT 21/16 A3023 RMK A01 T02090162  RH  075%=      5-min Rain = 0
KSB1 121430Z 02003KT 21/16 A3023 RMK A01 T02090161  RH  074%=      5-min Rain = 0
KSB1 121431Z 04003KT 21/16 A3023 RMK A01 T02090163  RH  075%=      5-min Rain = 0
KSB1 121432Z 06003KT 21/16 A3023 RMK A01 T02100162  RH  074%=      5-min Rain = 0
KSB1 121433Z 06002KT 21/16 A3023 RMK A01 T02100161  RH  073%=      5-min Rain = 0
KSB1 121434Z 06002KT 21/16 A3023 RMK A01 T02110162  RH  074%=      5-min Rain = 0
KSB1 121435Z 06002KT 21/16 A3023 RMK A01 T02110162  RH  073%=      5-min Rain = 0
KSB1 121436Z 06002KT 21/16 A3023 RMK A01 T02110161  RH  073%=      5-min Rain = 0
KSB1 121437Z 06002KT 21/16 A3023 RMK A01 T02110161  RH  073%=      5-min Rain = 0
KSB1 121438Z 05002KT 21/16 A3023 RMK A01 T02110162  RH  073%=      5-min Rain = 0
KSB1 121439Z 06002KT 21/16 A3023 RMK A01 T02110161  RH  073%=      5-min Rain = 0
KSB1 121440Z 05002KT 21/16 A3023 RMK A01 T02110159  RH  072%=      5-min Rain = 0
KSB1 121441Z 06002KT 21/16 A3023 RMK A01 T02120161  RH  073%=      5-min Rain = 0
KSB1 121442Z 06002KT 21/16 A3023 RMK A01 T02120162  RH  073%=      5-min Rain = 0
KSB1 121443Z 07002KT 21/16 A3023 RMK A01 T02130161  RH  072%=      5-min Rain = 0
KSB1 121444Z 05003KT 21/16 A3023 RMK A01 T02140161  RH  072%=      5-min Rain = 0
KSB1 121445Z 05003KT 21/16 A3023 RMK A01 T02130158  RH  071%=      5-min Rain = 0
KSB1 121446Z 05002KT 21/16 A3023 RMK A01 T02140159  RH  071%=      5-min Rain = 0
KSB1 121447Z 04002KT 21/16 A3023 RMK A01 T02140162  RH  072%=      5-min Rain = 0
KSB1 121448Z 05003KT 22/16 A3023 RMK A01 T02150161  RH  072%=      5-min Rain = 0
KSB1 121449Z 05002KT 22/16 A3023 RMK A01 T02150161  RH  071%=      5-min Rain = 0
KSB1 121450Z 05002KT 22/16 A3023 RMK A01 T02150160  RH  071%=      5-min Rain = 0
KSB1 121451Z 04002KT 22/16 A3024 RMK A01 T02150161  RH  071%=      5-min Rain = 0
KSB1 121452Z 04002KT 22/16 A3024 RMK A01 T02150161  RH  071%=      5-min Rain = 0
KSB1 121453Z 06002KT 22/16 A3024 RMK A01 T02160160  RH  071%=      5-min Rain = 0
KSB1 121454Z 07001KT 22/16 A3024 RMK A01 T02150158  RH  070%=      5-min Rain = 0
KSB1 121455Z 08001KT 22/16 A3024 RMK A01 T02150159  RH  070%=      5-min Rain = 0
KSB1 121456Z 07001KT 22/16 A3024 RMK A01 T02150158  RH  070%=      5-min Rain = 0
KSB1 121457Z 02001KT 22/16 A3024 RMK A01 T02150159  RH  070%=      5-min Rain = 0
KSB1 121458Z 01002KT 22/16 A3024 RMK A01 T02160160  RH  071%=      5-min Rain = 0
KSB1 121459Z 02003KT 22/16 A3024 RMK A01 T02160162  RH  071%=      5-min Rain = 0
KSB1 121500Z 36003KT 22/16 A3024 RMK A01 T02160160  RH  070%=      5-min Rain = 0
KSB1 121501Z 35002KT 22/16 A3024 RMK A01 T02170160  RH  070%=      5-min Rain = 0
KSB1 121502Z 35002KT 22/16 A3024 RMK A01 T02170160  RH  070%=      5-min Rain = 0
KSB1 121503Z 35002KT 22/16 A3024 RMK A01 T02170159  RH  069%=      5-min Rain = 0
KSB1 121504Z 01001KT 22/16 A3024 RMK A01 T02170160  RH  070%=      5-min Rain = 0
KSB1 121505Z 04001KT 22/16 A3024 RMK A01 T02170160  RH  070%=      5-min Rain = 0
KSB1 121506Z 02001KT 22/16 A3024 RMK A01 T02170159  RH  069%=      5-min Rain = 0
KSB1 121507Z 02001KT 22/16 A3024 RMK A01 T02170156  RH  068%=      5-min Rain = 0
KSB1 121508Z 01001KT 22/16 A3024 RMK A01 T02170156  RH  068%=      5-min Rain = 0
KSB1 121509Z 02002KT 22/16 A3024 RMK A01 T02170157  RH  068%=      5-min Rain = 0
KSB1 121510Z 02002KT 22/16 A3024 RMK A01 T02170157  RH  069%=      5-min Rain = 0
KSB1 121511Z 02001KT 22/15 A3024 RMK A01 T02180154  RH  067%=      5-min Rain = 0
KSB1 121512Z 04002KT 22/16 A3024 RMK A01 T02180155  RH  067%=      5-min Rain = 0
KSB1 121513Z 06002KT 22/16 A3024 RMK A01 T02180155  RH  067%=      5-min Rain = 0
KSB1 121514Z 05001KT 22/15 A3024 RMK A01 T02180152  RH  066%=      5-min Rain = 0
KSB1 121515Z 05000KT 22/15 A3024 RMK A01 T02180153  RH  067%=      5-min Rain = 0
KSB1 121516Z 02000KT 22/16 A3024 RMK A01 T02180157  RH  069%=      5-min Rain = 0
KSB1 121517Z 03001KT 22/16 A3024 RMK A01 T02180157  RH  068%=      5-min Rain = 0
KSB1 121518Z 04001KT 22/16 A3024 RMK A01 T02190160  RH  069%=      5-min Rain = 0
KSB1 121519Z 07001KT 22/16 A3024 RMK A01 T02190157  RH  068%=      5-min Rain = 0
KSB1 121520Z 09001KT 22/15 A3024 RMK A01 T02190154  RH  067%=      5-min Rain = 0
KSB1 121521Z 10001KT 22/15 A3024 RMK A01 T02190153  RH  066%=      5-min Rain = 0
KSB1 121522Z 10001KT 22/15 A3024 RMK A01 T02190150  RH  065%=      5-min Rain = 0
KSB1 121523Z 10001KT 22/16 A3024 RMK A01 T02190159  RH  069%=      5-min Rain = 0
KSB1 121524Z 14001KT 22/16 A3024 RMK A01 T02190161  RH  069%=      5-min Rain = 0
KSB1 121525Z 11001KT 22/16 A3024 RMK A01 T02200157  RH  068%=      5-min Rain = 0
KSB1 121526Z 20000KT 22/16 A3024 RMK A01 T02200155  RH  067%=      5-min Rain = 0
KSB1 121527Z 21001KT 22/16 A3024 RMK A01 T02200156  RH  067%=      5-min Rain = 0
KSB1 121528Z 21000KT 22/16 A3024 RMK A01 T02190157  RH  067%=      5-min Rain = 0
KSB1 121529Z 00000KT 22/16 A3024 RMK A01 T02190155  RH  067%=      5-min Rain = 0
KSB1 121530Z 00000KT 22/16 A3024 RMK A01 T02190155  RH  067%=      5-min Rain = 0
KSB1 121531Z 11001KT 22/15 A3024 RMK A01 T02190154  RH  067%=      5-min Rain = 0
KSB1 121532Z 10002KT 22/16 A3024 RMK A01 T02190155  RH  067%=      5-min Rain = 0
KSB1 121533Z 11002KT 22/16 A3024 RMK A01 T02190160  RH  069%=      5-min Rain = 0
KSB1 121534Z 10002KT 22/16 A3024 RMK A01 T02190162  RH  070%=      5-min Rain = 0
KSB1 121535Z 12003KT 22/16 A3024 RMK A01 T02190163  RH  070%=      5-min Rain = 0
KSB1 121536Z 13003KT 22/16 A3024 RMK A01 T02190159  RH  069%=      5-min Rain = 0
KSB1 121537Z 13003KT 22/16 A3024 RMK A01 T02190159  RH  069%=      5-min Rain = 0
KSB1 121538Z 11003KT 22/16 A3024 RMK A01 T02190162  RH  070%=      5-min Rain = 0
KSB1 121539Z 10002KT 22/16 A3024 RMK A01 T02190158  RH  068%=      5-min Rain = 0
KSB1 121540Z 08001KT 22/16 A3024 RMK A01 T02190156  RH  067%=      5-min Rain = 0
KSB1 121541Z 08001KT 22/16 A3024 RMK A01 T02190161  RH  069%=      5-min Rain = 0
KSB1 121542Z 08000KT 22/16 A3024 RMK A01 T02190160  RH  069%=      5-min Rain = 0
KSB1 121543Z 00000KT 22/16 A3025 RMK A01 T02190158  RH  068%=      5-min Rain = 0
KSB1 121544Z 17000KT 22/16 A3025 RMK A01 T02200162  RH  070%=      5-min Rain = 0
KSB1 121545Z 17001KT 22/16 A3025 RMK A01 T02200160  RH  069%=      5-min Rain = 0
KSB1 121546Z 17000KT 22/16 A3025 RMK A01 T02190158  RH  068%=      5-min Rain = 0
KSB1 121547Z 00000KT 22/16 A3025 RMK A01 T02190163  RH  071%=      5-min Rain = 0
KSB1 121548Z 07001KT 22/16 A3025 RMK A01 T02190161  RH  069%=      5-min Rain = 0
KSB1 121549Z 05002KT 22/16 A3025 RMK A01 T02190163  RH  070%=      5-min Rain = 0
KSB1 121550Z 04002KT 22/17 A3025 RMK A01 T02190166  RH  072%=      5-min Rain = 0.01
KSB1 121551Z 06002KT 22/17 A3025 RMK A01 T02180168  RH  073%=      5-min Rain = 0
KSB1 121552Z 07001KT 22/17 A3025 RMK A01 T02170171  RH  075%=      5-min Rain = 0
KSB1 121553Z 09001KT 22/17 A3025 RMK A01 T02160171  RH  075%=      5-min Rain = 0
KSB1 121554Z 12001KT 22/17 A3025 RMK A01 T02160166  RH  073%=      5-min Rain = 0
KSB1 121555Z 13001KT 22/17 A3025 RMK A01 T02160169  RH  075%=      5-min Rain = 0
KSB1 121556Z 13000KT 22/17 A3025 RMK A01 T02160168  RH  074%=      5-min Rain = 0
KSB1 121557Z 00000KT 22/17 A3025 RMK A01 T02160167  RH  074%=      5-min Rain = 0
KSB1 121558Z 04000KT 22/16 A3025 RMK A01 T02160163  RH  072%=      5-min Rain = 0
KSB1 121559Z 05001KT 22/16 A3025 RMK A01 T02160164  RH  072%=      5-min Rain = 0
KSB1 121600Z 06000KT 22/16 A3025 RMK A01 T02160164  RH  072%=      5-min Rain = 0
KSB1 121601Z 13000KT 22/16 A3025 RMK A01 T02160162  RH  071%=      5-min Rain = 0
KSB1 121602Z 13001KT 22/16 A3025 RMK A01 T02150160  RH  071%=      5-min Rain = 0
KSB1 121603Z 14001KT 22/17 A3025 RMK A01 T02160170  RH  075%=      5-min Rain = 0
KSB1 121604Z 16001KT 22/17 A3025 RMK A01 T02160170  RH  075%=      5-min Rain = 0
KSB1 121605Z 17001KT 22/17 A3025 RMK A01 T02160166  RH  073%=      5-min Rain = 0
KSB1 121606Z 19002KT 22/17 A3025 RMK A01 T02160170  RH  075%=      5-min Rain = 0
KSB1 121607Z 19002KT 22/17 A3025 RMK A01 T02150168  RH  074%=      5-min Rain = 0
KSB1 121608Z 18001KT 22/17 A3025 RMK A01 T02150166  RH  074%=      5-min Rain = 0
KSB1 121609Z 15001KT 21/17 A3025 RMK A01 T02140168  RH  075%=      5-min Rain = 0
KSB1 121610Z 14001KT 21/17 A3025 RMK A01 T02140165  RH  073%=      5-min Rain = 0
KSB1 121611Z 13000KT 21/17 A3025 RMK A01 T02140165  RH  073%=      5-min Rain = 0
KSB1 121612Z 00000KT 22/17 A3025 RMK A01 T02150167  RH  074%=      5-min Rain = 0
KSB1 121613Z 05000KT 22/17 A3025 RMK A01 T02150166  RH  074%=      5-min Rain = 0.01
KSB1 121614Z 05002KT 22/16 A3025 RMK A01 T02150164  RH  073%=      5-min Rain = 0
KSB1 121615Z 05002KT 22/17 A3025 RMK A01 T02150167  RH  074%=      5-min Rain = 0
KSB1 121616Z 05002KT 22/17 A3025 RMK A01 T02150169  RH  075%=      5-min Rain = 0
KSB1 121617Z 06002KT 21/17 A3025 RMK A01 T02140167  RH  074%=      5-min Rain = 0
KSB1 121618Z 07002KT 21/17 A3025 RMK A01 T02140169  RH  076%=      5-min Rain = 0
KSB1 121619Z 08002KT 21/17 A3025 RMK A01 T02140168  RH  075%=      5-min Rain = 0
KSB1 121620Z 09002KT 21/17 A3025 RMK A01 T02140169  RH  076%=      5-min Rain = 0
KSB1 121621Z 08003KT 21/17 A3025 RMK A01 T02140166  RH  074%=      5-min Rain = 0
KSB1 121622Z 08003KT 21/17 A3025 RMK A01 T02140171  RH  077%=      5-min Rain = 0
KSB1 121623Z 08004KT 21/18 A3025 RMK A01 T02140175  RH  078%=      5-min Rain = 0
KSB1 121624Z 08004KT 21/17 A3025 RMK A01 T02130173  RH  078%=      5-min Rain = 0
KSB1 121625Z 08003KT 21/17 A3025 RMK A01 T02130170  RH  076%=      5-min Rain = 0
KSB1 121626Z 09003KT 21/17 A3025 RMK A01 T02130171  RH  077%=      5-min Rain = 0
KSB1 121627Z 10002KT 21/17 A3025 RMK A01 T02130172  RH  077%=      5-min Rain = 0
KSB1 121628Z 11002KT 21/17 A3025 RMK A01 T02130169  RH  076%=      5-min Rain = 0
KSB1 121629Z 12001KT 21/17 A3025 RMK A01 T02140172  RH  077%=      5-min Rain = 0
KSB1 121630Z 12001KT 22/17 A3025 RMK A01 T02150172  RH  076%=      5-min Rain = 0
KSB1 121631Z 12001KT 22/17 A3025 RMK A01 T02160173  RH  077%=      5-min Rain = 0
KSB1 121632Z 10001KT 22/17 A3025 RMK A01 T02160165  RH  073%=      5-min Rain = 0
KSB1 121633Z 14001KT 22/17 A3025 RMK A01 T02160166  RH  073%=      5-min Rain = 0
KSB1 121634Z 15001KT 22/17 A3025 RMK A01 T02170170  RH  075%=      5-min Rain = 0
KSB1 121635Z 16001KT 22/17 A3025 RMK A01 T02180171  RH  075%=      5-min Rain = 0
KSB1 121636Z 14002KT 22/17 A3025 RMK A01 T02180167  RH  073%=      5-min Rain = 0
KSB1 121637Z 12002KT 22/17 A3025 RMK A01 T02180166  RH  072%=      5-min Rain = 0
KSB1 121638Z 14001KT 22/16 A3025 RMK A01 T02190164  RH  071%=      5-min Rain = 0
KSB1 121639Z 15001KT 22/17 A3025 RMK A01 T02190168  RH  073%=      5-min Rain = 0
KSB1 121640Z 17001KT 22/17 A3026 RMK A01 T02190165  RH  071%=      5-min Rain = 0
KSB1 121641Z 21001KT 22/16 A3026 RMK A01 T02200164  RH  071%=      5-min Rain = 0
KSB1 121642Z 25000KT 22/16 A3026 RMK A01 T02200160  RH  068%=      5-min Rain = 0
KSB1 121643Z 30001KT 22/17 A3026 RMK A01 T02210166  RH  071%=      5-min Rain = 0
KSB1 121644Z 27002KT 22/17 A3026 RMK A01 T02220167  RH  071%=      5-min Rain = 0
KSB1 121645Z 26002KT 22/16 A3026 RMK A01 T02220163  RH  069%=      5-min Rain = 0
KSB1 121646Z 26001KT 22/16 A3026 RMK A01 T02230160  RH  067%=      5-min Rain = 0
KSB1 121647Z 27001KT 22/16 A3026 RMK A01 T02230159  RH  067%=      5-min Rain = 0
KSB1 121648Z 26000KT 22/16 A3026 RMK A01 T02230163  RH  068%=      5-min Rain = 0
KSB1 121649Z 20000KT 22/16 A3026 RMK A01 T02240163  RH  068%=      5-min Rain = 0
KSB1 121650Z 27001KT 23/16 A3026 RMK A01 T02260160  RH  066%=      5-min Rain = 0
KSB1 121651Z 29001KT 23/16 A3026 RMK A01 T02270162  RH  067%=      5-min Rain = 0
KSB1 121652Z 28001KT 23/16 A3026 RMK A01 T02270159  RH  066%=      5-min Rain = 0
KSB1 121653Z 00000KT 23/16 A3026 RMK A01 T02270161  RH  066%=      5-min Rain = 0
KSB1 121654Z 31000KT 23/16 A3026 RMK A01 T02280161  RH  066%=      5-min Rain = 0
KSB1 121655Z 30001KT 23/16 A3026 RMK A01 T02290160  RH  065%=      5-min Rain = 0
KSB1 121656Z 34001KT 23/16 A3026 RMK A01 T02290160  RH  065%=      5-min Rain = 0
KSB1 121657Z 00000KT 23/16 A3026 RMK A01 T02300163  RH  066%=      5-min Rain = 0
KSB1 121658Z 27001KT 23/16 A3026 RMK A01 T02310161  RH  065%=      5-min Rain = 0
KSB1 121659Z 24001KT 23/16 A3026 RMK A01 T02320161  RH  064%=      5-min Rain = 0
KSB1 121700Z 24002KT 23/16 A3026 RMK A01 T02320158  RH  063%=      5-min Rain = 0
KSB1 121701Z 23002KT 23/16 A3026 RMK A01 T02320160  RH  064%=      5-min Rain = 0
KSB1 121702Z 23001KT 23/16 A3026 RMK A01 T02320156  RH  062%=      5-min Rain = 0
KSB1 121703Z 24001KT 23/16 A3026 RMK A01 T02320155  RH  062%=      5-min Rain = 0
KSB1 121704Z 22001KT 23/16 A3026 RMK A01 T02330156  RH  062%=      5-min Rain = 0
KSB1 121705Z 26000KT 23/16 A3026 RMK A01 T02340155  RH  061%=      5-min Rain = 0
KSB1 121706Z 25001KT 24/16 A3026 RMK A01 T02360159  RH  062%=      5-min Rain = 0
KSB1 121707Z 24002KT 24/16 A3026 RMK A01 T02370160  RH  062%=      5-min Rain = 0
KSB1 121708Z 23002KT 24/16 A3026 RMK A01 T02380158  RH  061%=      5-min Rain = 0
KSB1 121709Z 24001KT 24/16 A3026 RMK A01 T02370158  RH  061%=      5-min Rain = 0
KSB1 121710Z 26001KT 24/16 A3026 RMK A01 T02380157  RH  060%=      5-min Rain = 0
KSB1 121711Z 27003KT 24/15 A3026 RMK A01 T02380153  RH  059%=      5-min Rain = 0
KSB1 121712Z 27001KT 24/16 A3026 RMK A01 T02380155  RH  060%=      5-min Rain = 0
KSB1 121713Z 26002KT 24/16 A3026 RMK A01 T02390156  RH  060%=      5-min Rain = 0
KSB1 121714Z 24003KT 24/15 A3026 RMK A01 T02400154  RH  059%=      5-min Rain = 0
KSB1 121715Z 24001KT 24/15 A3026 RMK A01 T02400154  RH  058%=      5-min Rain = 0
KSB1 121716Z 25002KT 24/16 A3026 RMK A01 T02410157  RH  059%=      5-min Rain = 0
KSB1 121717Z 26003KT 24/16 A3026 RMK A01 T02430162  RH  060%=      5-min Rain = 0
KSB1 121718Z 25002KT 25/16 A3026 RMK A01 T02450156  RH  057%=      5-min Rain = 0
KSB1 121719Z 27003KT 25/16 A3026 RMK A01 T02460159  RH  058%=      5-min Rain = 0
KSB1 121720Z 24004KT 25/16 A3026 RMK A01 T02470158  RH  058%=      5-min Rain = 0
KSB1 121721Z 23004KT 25/16 A3026 RMK A01 T02490156  RH  056%=      5-min Rain = 0
KSB1 121722Z 22002KT 25/15 A3026 RMK A01 T02500149  RH  053%=      5-min Rain = 0
KSB1 121723Z 20004KT 25/15 A3026 RMK A01 T02510153  RH  054%=      5-min Rain = 0
KSB1 121724Z 18002KT 25/15 A3026 RMK A01 T02510151  RH  054%=      5-min Rain = 0
KSB1 121725Z 17002KT 25/15 A3026 RMK A01 T02520150  RH  053%=      5-min Rain = 0
KSB1 121726Z 15001KT 25/15 A3026 RMK A01 T02520149  RH  053%=      5-min Rain = 0
KSB1 121727Z 13001KT 25/15 A3026 RMK A01 T02520149  RH  053%=      5-min Rain = 0
KSB1 121728Z 10002KT 25/15 A3026 RMK A01 T02520151  RH  053%=      5-min Rain = 0
KSB1 121729Z 13001KT 25/15 A3026 RMK A01 T02530148  RH  052%=      5-min Rain = 0
KSB1 121730Z 16003KT 25/15 A3026 RMK A01 T02530152  RH  054%=      5-min Rain = 0
KSB1 121731Z 18003KT 25/15 A3026 RMK A01 T02530149  RH  052%=      5-min Rain = 0
KSB1 121732Z 15002KT 25/15 A3026 RMK A01 T02530148  RH  052%=      5-min Rain = 0
KSB1 121733Z 18003KT 25/15 A3026 RMK A01 T02520150  RH  053%=      5-min Rain = 0
KSB1 121734Z 19003KT 25/15 A3026 RMK A01 T02510146  RH  052%=      5-min Rain = 0
KSB1 121735Z 22003KT 25/14 A3026 RMK A01 T02490142  RH  051%=      5-min Rain = 0
KSB1 121736Z 21002KT 25/14 A3026 RMK A01 T02490143  RH  052%=      5-min Rain = 0
KSB1 121737Z 25001KT 25/14 A3026 RMK A01 T02510143  RH  051%=      5-min Rain = 0
KSB1 121738Z 27003KT 25/14 A3026 RMK A01 T02520141  RH  050%=      5-min Rain = 0
KSB1 121739Z 26002KT 25/14 A3026 RMK A01 T02520139  RH  049%=      5-min Rain = 0
KSB1 121740Z 07000KT 25/14 A3026 RMK A01 T02510136  RH  049%=      5-min Rain = 0
KSB1 121741Z 04001KT 25/14 A3026 RMK A01 T02510140  RH  050%=      5-min Rain = 0
KSB1 121742Z 03000KT 25/14 A3026 RMK A01 T02520144  RH  051%=      5-min Rain = 0
KSB1 121743Z 23002KT 26/15 A3026 RMK A01 T02550149  RH  052%=      5-min Rain = 0
KSB1 121744Z 24003KT 26/15 A3026 RMK A01 T02570149  RH  051%=      5-min Rain = 0
KSB1 121745Z 24002KT 26/15 A3026 RMK A01 T02560145  RH  050%=      5-min Rain = 0
KSB1 121746Z 29001KT 25/14 A3026 RMK A01 T02540142  RH  050%=      5-min Rain = 0
KSB1 121747Z 27001KT 25/14 A3026 RMK A01 T02530142  RH  050%=      5-min Rain = 0
KSB1 121748Z 22001KT 25/14 A3026 RMK A01 T02530143  RH  050%=      5-min Rain = 0
KSB1 121749Z 22002KT 25/15 A3026 RMK A01 T02530146  RH  052%=      5-min Rain = 0
KSB1 121750Z 17000KT 25/14 A3026 RMK A01 T02540144  RH  050%=      5-min Rain = 0
KSB1 121751Z 00000KT 26/15 A3026 RMK A01 T02550145  RH  051%=      5-min Rain = 0
KSB1 121752Z 20001KT 26/15 A3026 RMK A01 T02570147  RH  050%=      5-min Rain = 0
KSB1 121753Z 19003KT 26/15 A3026 RMK A01 T02580149  RH  051%=      5-min Rain = 0
KSB1 121754Z 21002KT 26/15 A3026 RMK A01 T02590148  RH  050%=      5-min Rain = 0
KSB1 121755Z 21002KT 26/15 A3026 RMK A01 T02580150  RH  051%=      5-min Rain = 0
KSB1 121756Z 22001KT 26/15 A3026 RMK A01 T02590149  RH  051%=      5-min Rain = 0
KSB1 121757Z 35000KT 26/15 A3026 RMK A01 T02600148  RH  050%=      5-min Rain = 0
KSB1 121758Z 35001KT 26/15 A3026 RMK A01 T02600148  RH  050%=      5-min Rain = 0
KSB1 121759Z 28001KT 26/15 A3026 RMK A01 T02600150  RH  051%=      5-min Rain = 0
KSB1 121800Z 26001KT 26/15 A3026 RMK A01 T02590147  RH  050%=      5-min Rain = 0
KSB1 121801Z 05001KT 26/15 A3025 RMK A01 T02590147  RH  050%=      5-min Rain = 0
KSB1 121802Z 03000KT 26/15 A3025 RMK A01 T02580149  RH  051%=      5-min Rain = 0
KSB1 121803Z 29000KT 26/15 A3025 RMK A01 T02590148  RH  050%=      5-min Rain = 0
KSB1 121804Z 32002KT 26/15 A3025 RMK A01 T02620153  RH  051%=      5-min Rain = 0
KSB1 121805Z 30002KT 26/15 A3025 RMK A01 T02630146  RH  048%=      5-min Rain = 0
KSB1 121806Z 28002KT 26/14 A3025 RMK A01 T02640142  RH  047%=      5-min Rain = 0
KSB1 121807Z 29001KT 26/14 A3025 RMK A01 T02640144  RH  048%=      5-min Rain = 0
KSB1 121808Z 24001KT 26/14 A3025 RMK A01 T02630144  RH  048%=      5-min Rain = 0
KSB1 121809Z 23001KT 26/15 A3025 RMK A01 T02630145  RH  048%=      5-min Rain = 0
KSB1 121810Z 21003KT 27/15 A3025 RMK A01 T02650145  RH  048%=      5-min Rain = 0
KSB1 121811Z 20002KT 27/14 A3025 RMK A01 T02650141  RH  046%=      5-min Rain = 0
KSB1 121812Z 20004KT 27/14 A3025 RMK A01 T02660144  RH  047%=      5-min Rain = 0
KSB1 121813Z 20004KT 27/14 A3025 RMK A01 T02660144  RH  047%=      5-min Rain = 0
KSB1 121814Z 21003KT 27/14 A3025 RMK A01 T02660142  RH  046%=      5-min Rain = 0
KSB1 121815Z 23002KT 27/14 A3025 RMK A01 T02650140  RH  046%=      5-min Rain = 0
KSB1 121816Z 23002KT 26/14 A3025 RMK A01 T02630141  RH  047%=      5-min Rain = 0
KSB1 121817Z 23000KT 26/14 A3025 RMK A01 T02630140  RH  047%=      5-min Rain = 0
KSB1 121818Z 00000KT 26/14 A3025 RMK A01 T02630139  RH  047%=      5-min Rain = 0
KSB1 121819Z 00000KT 27/14 A3025 RMK A01 T02650144  RH  047%=      5-min Rain = 0
KSB1 121820Z 02001KT 27/14 A3025 RMK A01 T02670143  RH  047%=      5-min Rain = 0
KSB1 121821Z 00001KT 27/14 A3025 RMK A01 T02670143  RH  046%=      5-min Rain = 0
KSB1 121822Z 28002KT 27/14 A3025 RMK A01 T02680144  RH  047%=      5-min Rain = 0
KSB1 121823Z 28002KT 27/14 A3025 RMK A01 T02680141  RH  046%=      5-min Rain = 0
KSB1 121824Z 30001KT 27/14 A3025 RMK A01 T02660140  RH  046%=      5-min Rain = 0
KSB1 121825Z 32002KT 26/14 A3025 RMK A01 T02640140  RH  046%=      5-min Rain = 0
KSB1 121826Z 34002KT 26/14 A3025 RMK A01 T02640142  RH  047%=      5-min Rain = 0
KSB1 121827Z 35002KT 27/14 A3025 RMK A01 T02650143  RH  047%=      5-min Rain = 0
KSB1 121828Z 03001KT 27/14 A3025 RMK A01 T02650144  RH  047%=      5-min Rain = 0
KSB1 121829Z 00001KT 27/14 A3025 RMK A01 T02660144  RH  047%=      5-min Rain = 0
KSB1 121830Z 34003KT 27/14 A3025 RMK A01 T02670143  RH  047%=      5-min Rain = 0
KSB1 121831Z 26001KT 27/15 A3025 RMK A01 T02670146  RH  047%=      5-min Rain = 0
KSB1 121832Z 23002KT 27/14 A3025 RMK A01 T02670144  RH  047%=      5-min Rain = 0
KSB1 121833Z 19002KT 27/15 A3024 RMK A01 T02670146  RH  047%=      5-min Rain = 0
KSB1 121834Z 21001KT 27/15 A3024 RMK A01 T02700146  RH  047%=      5-min Rain = 0
KSB1 121835Z 00000KT 27/14 A3024 RMK A01 T02710144  RH  046%=      5-min Rain = 0
KSB1 121836Z 28003KT 27/15 A3024 RMK A01 T02720146  RH  046%=      5-min Rain = 0
KSB1 121837Z 27003KT 27/14 A3024 RMK A01 T02710143  RH  045%=      5-min Rain = 0
KSB1 121838Z 25003KT 27/14 A3024 RMK A01 T02690142  RH  046%=      5-min Rain = 0
KSB1 121839Z 22003KT 27/14 A3024 RMK A01 T02670140  RH  046%=      5-min Rain = 0
KSB1 121840Z 22003KT 27/14 A3024 RMK A01 T02660143  RH  047%=      5-min Rain = 0
KSB1 121841Z 21002KT 27/14 A3024 RMK A01 T02660141  RH  046%=      5-min Rain = 0
KSB1 121842Z 21002KT 27/14 A3024 RMK A01 T02650140  RH  046%=      5-min Rain = 0
KSB1 121843Z 21002KT 27/14 A3024 RMK A01 T02660144  RH  047%=      5-min Rain = 0
KSB1 121844Z 24004KT 27/15 A3024 RMK A01 T02680145  RH  047%=      5-min Rain = 0
KSB1 121845Z 31007KT 27/15 A3024 RMK A01 T02690149  RH  048%=      5-min Rain = 0
KSB1 121846Z 33004KT 27/15 A3024 RMK A01 T02700147  RH  047%=      5-min Rain = 0
KSB1 121847Z 33005KT 27/15 A3024 RMK A01 T02700150  RH  048%=      5-min Rain = 0.01
KSB1 121848Z 32003KT 27/15 A3024 RMK A01 T02690148  RH  047%=      5-min Rain = 0
KSB1 121849Z 35003KT 27/15 A3024 RMK A01 T02660147  RH  048%=      5-min Rain = 0
KSB1 121850Z 00004KT 27/15 A3024 RMK A01 T02660148  RH  048%=      5-min Rain = 0
KSB1 121851Z 35004KT 27/15 A3024 RMK A01 T02660148  RH  048%=      5-min Rain = 0
KSB1 121852Z 35003KT 27/15 A3024 RMK A01 T02660146  RH  047%=      5-min Rain = 0
KSB1 121853Z 35003KT 27/15 A3024 RMK A01 T02660146  RH  048%=      5-min Rain = 0
KSB1 121854Z 01002KT 27/15 A3024 RMK A01 T02660148  RH  048%=      5-min Rain = 0
KSB1 121855Z 02003KT 27/15 A3024 RMK A01 T02660146  RH  047%=      5-min Rain = 0
KSB1 121856Z 03003KT 27/15 A3024 RMK A01 T02660146  RH  047%=      5-min Rain = 0
KSB1 121857Z 32004KT 27/15 A3024 RMK A01 T02660147  RH  048%=      5-min Rain = 0
KSB1 121858Z 32004KT 27/15 A3024 RMK A01 T02650146  RH  048%=      5-min Rain = 0
KSB1 121859Z 31004KT 27/15 A3024 RMK A01 T02650148  RH  049%=      5-min Rain = 0
KSB1 121900Z 31004KT 27/15 A3024 RMK A01 T02650146  RH  048%=      5-min Rain = 0
KSB1 121901Z 31003KT 27/15 A3024 RMK A01 T02650146  RH  048%=      5-min Rain = 0
KSB1 121902Z 31004KT 26/15 A3024 RMK A01 T02640147  RH  048%=      5-min Rain = 0
KSB1 121903Z 29003KT 27/15 A3024 RMK A01 T02650147  RH  048%=      5-min Rain = 0
KSB1 121904Z 30003KT 27/15 A3024 RMK A01 T02650147  RH  048%=      5-min Rain = 0
KSB1 121905Z 32003KT 27/15 A3024 RMK A01 T02660148  RH  048%=      5-min Rain = 0
KSB1 121906Z 34005KT 27/15 A3023 RMK A01 T02670149  RH  048%=      5-min Rain = 0
KSB1 121907Z 34005KT 27/15 A3023 RMK A01 T02700149  RH  048%=      5-min Rain = 0
KSB1 121908Z 34005KT 27/15 A3023 RMK A01 T02720147  RH  047%=      5-min Rain = 0
KSB1 121909Z 35005KT 27/15 A3023 RMK A01 T02720147  RH  046%=      5-min Rain = 0
KSB1 121910Z 35004KT 27/15 A3023 RMK A01 T02730147  RH  046%=      5-min Rain = 0
KSB1 121911Z 01005KT 27/15 A3023 RMK A01 T02740146  RH  045%=      5-min Rain = 0
KSB1 121912Z 01004KT 27/15 A3023 RMK A01 T02740145  RH  045%=      5-min Rain = 0
KSB1 121913Z 36004KT 27/15 A3023 RMK A01 T02740147  RH  046%=      5-min Rain = 0
KSB1 121914Z 34005KT 28/15 A3023 RMK A01 T02750146  RH  045%=      5-min Rain = 0
KSB1 121915Z 34004KT 28/15 A3023 RMK A01 T02760145  RH  045%=      5-min Rain = 0
KSB1 121916Z 00004KT 28/15 A3023 RMK A01 T02750145  RH  045%=      5-min Rain = 0
KSB1 121917Z 02004KT 28/15 A3023 RMK A01 T02750146  RH  045%=      5-min Rain = 0
KSB1 121918Z 01003KT 28/15 A3023 RMK A01 T02760149  RH  046%=      5-min Rain = 0
KSB1 121919Z 32004KT 28/15 A3023 RMK A01 T02800146  RH  044%=      5-min Rain = 0
KSB1 121920Z 34004KT 28/15 A3023 RMK A01 T02800146  RH  044%=      5-min Rain = 0
KSB1 121921Z 34004KT 28/15 A3023 RMK A01 T02800145  RH  044%=      5-min Rain = 0
KSB1 121922Z 29002KT 28/14 A3023 RMK A01 T02800144  RH  043%=      5-min Rain = 0
KSB1 121923Z 34005KT 28/15 A3023 RMK A01 T02800148  RH  044%=      5-min Rain = 0
KSB1 121924Z 33003KT 28/14 A3023 RMK A01 T02810143  RH  043%=      5-min Rain = 0
KSB1 121925Z 26001KT 28/14 A3023 RMK A01 T02780143  RH  044%=      5-min Rain = 0
KSB1 121926Z 16001KT 28/14 A3023 RMK A01 T02770143  RH  044%=      5-min Rain = 0
KSB1 121927Z 02002KT 28/14 A3023 RMK A01 T02790144  RH  044%=      5-min Rain = 0
KSB1 121928Z 02002KT 28/14 A3023 RMK A01 T02810142  RH  043%=      5-min Rain = 0
KSB1 121929Z 00004KT 28/14 A3023 RMK A01 T02820141  RH  042%=      5-min Rain = 0
KSB1 121930Z 34003KT 28/14 A3023 RMK A01 T02830142  RH  042%=      5-min Rain = 0
KSB1 121931Z 31002KT 28/14 A3023 RMK A01 T02840143  RH  042%=      5-min Rain = 0
KSB1 121932Z 28003KT 28/14 A3022 RMK A01 T02830141  RH  042%=      5-min Rain = 0
KSB1 121933Z 26002KT 28/14 A3022 RMK A01 T02830140  RH  042%=      5-min Rain = 0
KSB1 121934Z 25004KT 28/14 A3022 RMK A01 T02830140  RH  042%=      5-min Rain = 0
KSB1 121935Z 27001KT 28/14 A3022 RMK A01 T02840139  RH  041%=      5-min Rain = 0
KSB1 121936Z 23000KT 29/14 A3022 RMK A01 T02850137  RH  040%=      5-min Rain = 0
KSB1 121937Z 00000KT 29/14 A3022 RMK A01 T02860138  RH  040%=      5-min Rain = 0
KSB1 121938Z 26000KT 29/14 A3022 RMK A01 T02880137  RH  040%=      5-min Rain = 0
KSB1 121939Z 30004KT 29/14 A3022 RMK A01 T02880138  RH  040%=      5-min Rain = 0
KSB1 121940Z 31003KT 29/14 A3022 RMK A01 T02880140  RH  040%=      5-min Rain = 0
KSB1 121941Z 32003KT 29/14 A3022 RMK A01 T02870139  RH  040%=      5-min Rain = 0
KSB1 121942Z 36000KT 29/14 A3022 RMK A01 T02870139  RH  040%=      5-min Rain = 0
KSB1 121943Z 32002KT 29/14 A3022 RMK A01 T02870140  RH  041%=      5-min Rain = 0
KSB1 121944Z 29005KT 29/14 A3022 RMK A01 T02880139  RH  040%=      5-min Rain = 0
KSB1 121945Z 28004KT 29/14 A3022 RMK A01 T02870138  RH  040%=      5-min Rain = 0
KSB1 121946Z 28005KT 29/14 A3022 RMK A01 T02850136  RH  040%=      5-min Rain = 0
KSB1 121947Z 27005KT 28/14 A3022 RMK A01 T02830136  RH  041%=      5-min Rain = 0
KSB1 121948Z 29004KT 28/14 A3022 RMK A01 T02820137  RH  041%=      5-min Rain = 0
KSB1 121949Z 29003KT 28/14 A3022 RMK A01 T02820136  RH  041%=      5-min Rain = 0
KSB1 121950Z 29004KT 28/14 A3022 RMK A01 T02810135  RH  041%=      5-min Rain = 0
KSB1 121951Z 30002KT 28/14 A3022 RMK A01 T02800135  RH  041%=      5-min Rain = 0
KSB1 121952Z 33001KT 28/14 A3022 RMK A01 T02810136  RH  041%=      5-min Rain = 0
KSB1 121953Z 32002KT 28/14 A3022 RMK A01 T02820138  RH  041%=      5-min Rain = 0
KSB1 121954Z 29002KT 29/14 A3022 RMK A01 T02850139  RH  041%=      5-min Rain = 0
KSB1 121955Z 30003KT 29/14 A3022 RMK A01 T02870136  RH  040%=      5-min Rain = 0
KSB1 121956Z 33004KT 29/14 A3022 RMK A01 T02860138  RH  040%=      5-min Rain = 0
KSB1 121957Z 31003KT 29/14 A3022 RMK A01 T02850138  RH  041%=      5-min Rain = 0
KSB1 121958Z 32004KT 28/14 A3022 RMK A01 T02840139  RH  041%=      5-min Rain = 0
KSB1 121959Z 32005KT 28/14 A3021 RMK A01 T02840137  RH  041%=      5-min Rain = 0
KSB1 122000Z 33006KT 28/14 A3021 RMK A01 T02840140  RH  041%=      5-min Rain = 0
KSB1 122001Z 32006KT 29/14 A3021 RMK A01 T02860136  RH  040%=      5-min Rain = 0
KSB1 122002Z 35005KT 29/14 A3021 RMK A01 T02850137  RH  040%=      5-min Rain = 0
KSB1 122003Z 35004KT 29/14 A3021 RMK A01 T02850136  RH  040%=      5-min Rain = 0
KSB1 122004Z 35003KT 29/14 A3021 RMK A01 T02850135  RH  040%=      5-min Rain = 0
KSB1 122005Z 33005KT 29/14 A3021 RMK A01 T02850138  RH  041%=      5-min Rain = 0
KSB1 122006Z 32006KT 29/14 A3021 RMK A01 T02860139  RH  041%=      5-min Rain = 0
KSB1 122007Z 35006KT 29/14 A3021 RMK A01 T02870138  RH  040%=      5-min Rain = 0
KSB1 122008Z 35004KT 29/14 A3021 RMK A01 T02870137  RH  040%=      5-min Rain = 0
KSB1 122009Z 36006KT 29/14 A3021 RMK A01 T02870139  RH  040%=      5-min Rain = 0
KSB1 122010Z 01004KT 29/14 A3021 RMK A01 T02870136  RH  039%=      5-min Rain = 0
KSB1 122011Z 36004KT 29/14 A3021 RMK A01 T02870137  RH  040%=      5-min Rain = 0
KSB1 122012Z 33005KT 29/14 A3021 RMK A01 T02860137  RH  040%=      5-min Rain = 0
KSB1 122013Z 33004KT 29/14 A3021 RMK A01 T02870135  RH  039%=      5-min Rain = 0
KSB1 122014Z 34004KT 29/14 A3021 RMK A01 T02870135  RH  039%=      5-min Rain = 0
KSB1 122015Z 34003KT 29/13 A3021 RMK A01 T02870134  RH  039%=      5-min Rain = 0
KSB1 122016Z 34002KT 29/13 A3021 RMK A01 T02870133  RH  039%=      5-min Rain = 0
KSB1 122017Z 36004KT 29/13 A3021 RMK A01 T02870134  RH  039%=      5-min Rain = 0
KSB1 122018Z 00003KT 29/13 A3021 RMK A01 T02870133  RH  039%=      5-min Rain = 0
KSB1 122019Z 36002KT 29/13 A3021 RMK A01 T02870133  RH  039%=      5-min Rain = 0
KSB1 122020Z 33003KT 29/13 A3021 RMK A01 T02870134  RH  039%=      5-min Rain = 0
KSB1 122021Z 35002KT 29/13 A302 RMK A01 T02870134  RH  039%=      5-min Rain = 0
KSB1 122022Z 35003KT 29/14 A302 RMK A01 T02860135  RH  039%=      5-min Rain = 0
KSB1 122023Z 33007KT 29/14 A302 RMK A01 T02880137  RH  039%=      5-min Rain = 0
KSB1 122024Z 32005KT 29/14 A302 RMK A01 T02910135  RH  038%=      5-min Rain = 0
KSB1 122025Z 33005KT 29/14 A302 RMK A01 T02900135  RH  038%=      5-min Rain = 0
KSB1 122026Z 33005KT 29/13 A302 RMK A01 T02890134  RH  039%=      5-min Rain = 0
KSB1 122027Z 34005KT 29/13 A302 RMK A01 T02880134  RH  039%=      5-min Rain = 0
KSB1 122028Z 36005KT 29/14 A302 RMK A01 T02880135  RH  039%=      5-min Rain = 0
KSB1 122029Z 33005KT 29/13 A302 RMK A01 T02880134  RH  039%=      5-min Rain = 0
KSB1 122030Z 34004KT 29/13 A302 RMK A01 T02890133  RH  038%=      5-min Rain = 0
KSB1 122031Z 00002KT 29/13 A302 RMK A01 T02900134  RH  038%=      5-min Rain = 0
KSB1 122032Z 16001KT 29/14 A302 RMK A01 T02930136  RH  038%=      5-min Rain = 0
KSB1 122033Z 36007KT 29/14 A3019 RMK A01 T02940136  RH  038%=      5-min Rain = 0
KSB1 122034Z 35005KT 30/14 A3019 RMK A01 T02970138  RH  038%=      5-min Rain = 0
KSB1 122035Z 36008KT 30/14 A3019 RMK A01 T03000137  RH  037%=      5-min Rain = 0
KSB1 122036Z 35008KT 30/14 A3019 RMK A01 T03010136  RH  036%=      5-min Rain = 0
KSB1 122037Z 33005KT 30/14 A3019 RMK A01 T03000138  RH  037%=      5-min Rain = 0
KSB1 122038Z 01007KT 30/14 A3019 RMK A01 T03000136  RH  037%=      5-min Rain = 0
KSB1 122039Z 00005KT 30/14 A3019 RMK A01 T03000135  RH  036%=      5-min Rain = 0
KSB1 122040Z 36003KT 30/14 A3019 RMK A01 T02980136  RH  037%=      5-min Rain = 0
KSB1 122041Z 01008KT 30/14 A3019 RMK A01 T02970139  RH  038%=      5-min Rain = 0
KSB1 122042Z 02008KT 30/14 A3019 RMK A01 T02960136  RH  038%=      5-min Rain = 0
KSB1 122043Z 02007KT 29/14 A3019 RMK A01 T02940137  RH  038%=      5-min Rain = 0
KSB1 122044Z 35006KT 29/14 A3019 RMK A01 T02940137  RH  038%=      5-min Rain = 0
KSB1 122045Z 33006KT 29/14 A3019 RMK A01 T02940136  RH  038%=      5-min Rain = 0
KSB1 122046Z 34004KT 29/14 A3019 RMK A01 T02930137  RH  038%=      5-min Rain = 0
KSB1 122047Z 31004KT 29/14 A3019 RMK A01 T02930137  RH  038%=      5-min Rain = 0
KSB1 122048Z 33006KT 29/14 A3019 RMK A01 T02920137  RH  039%=      5-min Rain = 0
KSB1 122049Z 32007KT 29/14 A3019 RMK A01 T02920137  RH  039%=      5-min Rain = 0
KSB1 122050Z 33007KT 29/14 A3019 RMK A01 T02910136  RH  039%=      5-min Rain = 0
KSB1 122051Z 33008KT 29/14 A3019 RMK A01 T02900137  RH  039%=      5-min Rain = 0
KSB1 122052Z 33006KT 29/14 A3019 RMK A01 T02900135  RH  038%=      5-min Rain = 0
KSB1 122053Z 32005KT 29/13 A3019 RMK A01 T02890134  RH  039%=      5-min Rain = 0
KSB1 122054Z 33004KT 29/13 A3019 RMK A01 T02860134  RH  039%=      5-min Rain = 0
KSB1 122055Z 35006KT 29/14 A3019 RMK A01 T02860135  RH  040%=      5-min Rain = 0
KSB1 122056Z 33004KT 29/13 A3019 RMK A01 T02860134  RH  039%=      5-min Rain = 0
KSB1 122057Z 35003KT 29/14 A3019 RMK A01 T02870135  RH  039%=      5-min Rain = 0
KSB1 122058Z 33005KT 29/13 A3018 RMK A01 T02880134  RH  039%=      5-min Rain = 0
KSB1 122059Z 32005KT 29/14 A3018 RMK A01 T02890136  RH  039%=      5-min Rain = 0
KSB1 122100Z 36004KT 29/14 A3018 RMK A01 T02890136  RH  039%=      5-min Rain = 0
KSB1 122101Z 36006KT 29/14 A3018 RMK A01 T02910135  RH  038%=      5-min Rain = 0
KSB1 122102Z 35005KT 29/13 A3018 RMK A01 T02910134  RH  038%=      5-min Rain = 0
KSB1 122103Z 00004KT 29/14 A3018 RMK A01 T02900135  RH  039%=      5-min Rain = 0
KSB1 122104Z 01005KT 29/13 A3018 RMK A01 T02900134  RH  038%=      5-min Rain = 0
KSB1 122105Z 00004KT 29/14 A3018 RMK A01 T02900135  RH  039%=      5-min Rain = 0
KSB1 122106Z 34004KT 29/13 A3018 RMK A01 T02900134  RH  038%=      5-min Rain = 0
KSB1 122107Z 01006KT 29/14 A3018 RMK A01 T02900135  RH  038%=      5-min Rain = 0
KSB1 122108Z 01004KT 29/13 A3018 RMK A01 T02900134  RH  038%=      5-min Rain = 0
KSB1 122109Z 34006KT 29/13 A3018 RMK A01 T02900134  RH  038%=      5-min Rain = 0
KSB1 122110Z 34005KT 29/13 A3018 RMK A01 T02910134  RH  038%=      5-min Rain = 0
KSB1 122111Z 36004KT 29/14 A3018 RMK A01 T02900135  RH  038%=      5-min Rain = 0
KSB1 122112Z 02004KT 29/14 A3018 RMK A01 T02920135  RH  038%=      5-min Rain = 0
KSB1 122113Z 01004KT 29/14 A3018 RMK A01 T02930135  RH  038%=      5-min Rain = 0
KSB1 122114Z 02006KT 29/13 A3018 RMK A01 T02930134  RH  038%=      5-min Rain = 0
KSB1 122115Z 00006KT 29/13 A3018 RMK A01 T02920134  RH  038%=      5-min Rain = 0
KSB1 122116Z 35006KT 29/13 A3018 RMK A01 T02910134  RH  038%=      5-min Rain = 0
KSB1 122117Z 35005KT 29/14 A3018 RMK A01 T02900135  RH  039%=      5-min Rain = 0
KSB1 122118Z 01005KT 29/13 A3018 RMK A01 T02910133  RH  038%=      5-min Rain = 0
KSB1 122119Z 36005KT 29/13 A3018 RMK A01 T02910134  RH  038%=      5-min Rain = 0
KSB1 122120Z 00004KT 29/13 A3018 RMK A01 T02910132  RH  038%=      5-min Rain = 0
KSB1 122121Z 36003KT 29/13 A3018 RMK A01 T02900132  RH  038%=      5-min Rain = 0
KSB1 122122Z 35004KT 29/13 A3018 RMK A01 T02900134  RH  038%=      5-min Rain = 0
KSB1 122123Z 03004KT 29/13 A3018 RMK A01 T02900133  RH  038%=      5-min Rain = 0
KSB1 122124Z 00002KT 29/13 A3018 RMK A01 T02900132  RH  038%=      5-min Rain = 0
KSB1 122125Z 35003KT 29/13 A3018 RMK A01 T02900133  RH  038%=      5-min Rain = 0
KSB1 122126Z 01002KT 29/13 A3018 RMK A01 T02900132  RH  038%=      5-min Rain = 0
KSB1 122127Z 06001KT 29/13 A3018 RMK A01 T02900131  RH  038%=      5-min Rain = 0
KSB1 122128Z 36001KT 29/13 A3018 RMK A01 T02890132  RH  038%=      5-min Rain = 0
KSB1 122129Z 32000KT 29/13 A3018 RMK A01 T02890131  RH  038%=      5-min Rain = 0
KSB1 122130Z 00000KT 29/13 A3018 RMK A01 T02890131  RH  038%=      5-min Rain = 0
KSB1 122131Z 00000KT 29/13 A3018 RMK A01 T02900132  RH  038%=      5-min Rain = 0
KSB1 122132Z 34002KT 29/13 A3018 RMK A01 T02920133  RH  038%=      5-min Rain = 0
KSB1 122133Z 33003KT 29/13 A3018 RMK A01 T02930133  RH  037%=      5-min Rain = 0
KSB1 122134Z 35003KT 29/13 A3018 RMK A01 T02930134  RH  038%=      5-min Rain = 0
KSB1 122135Z 35003KT 29/13 A3018 RMK A01 T02940134  RH  038%=      5-min Rain = 0
KSB1 122136Z 35004KT 29/13 A3018 RMK A01 T02940133  RH  037%=      5-min Rain = 0
KSB1 122137Z 33003KT 29/13 A3018 RMK A01 T02940134  RH  038%=      5-min Rain = 0
KSB1 122138Z 29002KT 29/13 A3018 RMK A01 T02930132  RH  037%=      5-min Rain = 0
KSB1 122139Z 30002KT 29/13 A3018 RMK A01 T02910133  RH  038%=      5-min Rain = 0
KSB1 122140Z 32003KT 29/13 A3018 RMK A01 T02910134  RH  038%=      5-min Rain = 0
KSB1 122141Z 33002KT 29/13 A3018 RMK A01 T02920133  RH  038%=      5-min Rain = 0
KSB1 122142Z 35000KT 29/13 A3018 RMK A01 T02930134  RH  038%=      5-min Rain = 0
KSB1 122143Z 28002KT 29/13 A3018 RMK A01 T02940134  RH  037%=      5-min Rain = 0
KSB1 122144Z 31002KT 30/13 A3017 RMK A01 T02950133  RH  037%=      5-min Rain = 0
KSB1 122145Z 00004KT 30/14 A3017 RMK A01 T02950135  RH  037%=      5-min Rain = 0
KSB1 122146Z 36004KT 30/13 A3017 RMK A01 T02960132  RH  036%=      5-min Rain = 0
KSB1 122147Z 35003KT 30/13 A3017 RMK A01 T02960132  RH  037%=      5-min Rain = 0
KSB1 122148Z 35002KT 29/13 A3017 RMK A01 T02940132  RH  037%=      5-min Rain = 0
KSB1 122149Z 35002KT 29/13 A3017 RMK A01 T02930132  RH  037%=      5-min Rain = 0
KSB1 122150Z 32002KT 29/13 A3017 RMK A01 T02930133  RH  038%=      5-min Rain = 0
KSB1 122151Z 31001KT 29/13 A3017 RMK A01 T02930132  RH  037%=      5-min Rain = 0
KSB1 122152Z 02005KT 29/13 A3017 RMK A01 T02930134  RH  038%=      5-min Rain = 0
KSB1 122153Z 02005KT 29/13 A3017 RMK A01 T02940130  RH  037%=      5-min Rain = 0
KSB1 122154Z 03004KT 29/13 A3017 RMK A01 T02940132  RH  037%=      5-min Rain = 0
KSB1 122155Z 02004KT 29/13 A3017 RMK A01 T02930131  RH  037%=      5-min Rain = 0
KSB1 122156Z 01004KT 29/13 A3017 RMK A01 T02940131  RH  037%=      5-min Rain = 0
KSB1 122157Z 01004KT 29/13 A3017 RMK A01 T02940132  RH  037%=      5-min Rain = 0
KSB1 122158Z 01003KT 29/13 A3017 RMK A01 T02940130  RH  037%=      5-min Rain = 0
KSB1 122159Z 01005KT 29/13 A3017 RMK A01 T02940131  RH  037%=      5-min Rain = 0
KSB1 122200Z 01005KT 29/13 A3017 RMK A01 T02940130  RH  037%=      5-min Rain = 0
KSB1 122201Z 00004KT 29/13 A3017 RMK A01 T02940131  RH  037%=      5-min Rain = 0
KSB1 122202Z 36005KT 29/13 A3017 RMK A01 T02940130  RH  037%=      5-min Rain = 0
KSB1 122203Z 35004KT 30/13 A3017 RMK A01 T02950130  RH  036%=      5-min Rain = 0
KSB1 122204Z 35004KT 29/13 A3017 RMK A01 T02940131  RH  037%=      5-min Rain = 0
KSB1 122205Z 36002KT 30/13 A3017 RMK A01 T02950131  RH  037%=      5-min Rain = 0
KSB1 122206Z 33001KT 30/13 A3017 RMK A01 T02970128  RH  035%=      5-min Rain = 0
KSB1 122207Z 08002KT 30/13 A3017 RMK A01 T02970129  RH  036%=      5-min Rain = 0
KSB1 122208Z 09000KT 30/13 A3017 RMK A01 T02970128  RH  035%=      5-min Rain = 0
KSB1 122209Z 09000KT 30/13 A3017 RMK A01 T02970128  RH  035%=      5-min Rain = 0
KSB1 122210Z 32000KT 30/13 A3017 RMK A01 T02980127  RH  035%=      5-min Rain = 0
KSB1 122211Z 34003KT 30/13 A3016 RMK A01 T02990130  RH  035%=      5-min Rain = 0
KSB1 122212Z 32004KT 30/13 A3016 RMK A01 T03000131  RH  035%=      5-min Rain = 0
KSB1 122213Z 33004KT 30/13 A3016 RMK A01 T03010129  RH  035%=      5-min Rain = 0
KSB1 122214Z 34004KT 30/13 A3016 RMK A01 T03010130  RH  035%=      5-min Rain = 0
KSB1 122215Z 34003KT 30/13 A3016 RMK A01 T03010129  RH  035%=      5-min Rain = 0
KSB1 122216Z 32002KT 30/13 A3016 RMK A01 T03000131  RH  035%=      5-min Rain = 0
KSB1 122217Z 01004KT 30/13 A3016 RMK A01 T03010131  RH  035%=      5-min Rain = 0
KSB1 122218Z 02004KT 30/13 A3016 RMK A01 T03030132  RH  035%=      5-min Rain = 0
KSB1 122219Z 02005KT 31/13 A3016 RMK A01 T03060132  RH  034%=      5-min Rain = 0
KSB1 122220Z 03006KT 31/13 A3016 RMK A01 T03080130  RH  034%=      5-min Rain = 0
KSB1 122221Z 03004KT 31/13 A3016 RMK A01 T03090130  RH  034%=      5-min Rain = 0
KSB1 122222Z 02004KT 31/13 A3016 RMK A01 T03060128  RH  034%=      5-min Rain = 0
KSB1 122223Z 01002KT 30/13 A3016 RMK A01 T03040130  RH  035%=      5-min Rain = 0
KSB1 122224Z 07001KT 30/13 A3016 RMK A01 T03020129  RH  035%=      5-min Rain = 0
KSB1 122225Z 13002KT 30/13 A3016 RMK A01 T03000128  RH  035%=      5-min Rain = 0
KSB1 122226Z 16002KT 30/13 A3016 RMK A01 T03000128  RH  035%=      5-min Rain = 0
KSB1 122227Z 17000KT 30/13 A3016 RMK A01 T03010128  RH  034%=      5-min Rain = 0
KSB1 122228Z 22001KT 30/13 A3016 RMK A01 T03040127  RH  034%=      5-min Rain = 0
KSB1 122229Z 34002KT 31/13 A3016 RMK A01 T03060129  RH  034%=      5-min Rain = 0
KSB1 122230Z 35003KT 31/13 A3016 RMK A01 T03080129  RH  034%=      5-min Rain = 0
KSB1 122231Z 34002KT 31/13 A3016 RMK A01 T03090129  RH  033%=      5-min Rain = 0
KSB1 122232Z 30001KT 31/13 A3016 RMK A01 T03080128  RH  033%=      5-min Rain = 0
KSB1 122233Z 30002KT 31/13 A3016 RMK A01 T03080129  RH  033%=      5-min Rain = 0
KSB1 122234Z 33001KT 31/13 A3016 RMK A01 T03110131  RH  033%=      5-min Rain = 0
KSB1 122235Z 00000KT 31/13 A3016 RMK A01 T03140133  RH  033%=      5-min Rain = 0
KSB1 122236Z 00000KT 32/13 A3016 RMK A01 T03170131  RH  032%=      5-min Rain = 0
KSB1 122237Z 00000KT 32/13 A3016 RMK A01 T03180130  RH  032%=      5-min Rain = 0
KSB1 122238Z 00000KT 32/13 A3016 RMK A01 T03180131  RH  032%=      5-min Rain = 0
KSB1 122239Z 00000KT 32/13 A3016 RMK A01 T03180131  RH  032%=      5-min Rain = 0
KSB1 122240Z 00000KT 32/13 A3016 RMK A01 T03190130  RH  032%=      5-min Rain = 0
KSB1 122241Z 00000KT 32/13 A3016 RMK A01 T03200131  RH  032%=      5-min Rain = 0
KSB1 122242Z 00000KT 32/13 A3016 RMK A01 T03180131  RH  032%=      5-min Rain = 0
KSB1 122243Z 00000KT 32/13 A3016 RMK A01 T03170132  RH  032%=      5-min Rain = 0
KSB1 122244Z 32000KT 32/13 A3015 RMK A01 T03170131  RH  032%=      5-min Rain = 0
KSB1 122245Z 09002KT 32/13 A3015 RMK A01 T03170133  RH  033%=      5-min Rain = 0
KSB1 122246Z 10004KT 32/13 A3015 RMK A01 T03170134  RH  033%=      5-min Rain = 0
KSB1 122247Z 08004KT 32/13 A3015 RMK A01 T03150132  RH  033%=      5-min Rain = 0
KSB1 122248Z 07004KT 31/13 A3015 RMK A01 T03130129  RH  032%=      5-min Rain = 0
KSB1 122249Z 05004KT 31/13 A3015 RMK A01 T03100126  RH  032%=      5-min Rain = 0
KSB1 122250Z 03003KT 31/12 A3015 RMK A01 T03090124  RH  032%=      5-min Rain = 0
KSB1 122251Z 01002KT 31/12 A3015 RMK A01 T03070123  RH  032%=      5-min Rain = 0
KSB1 122252Z 36000KT 31/13 A3015 RMK A01 T03060125  RH  033%=      5-min Rain = 0
KSB1 122253Z 35000KT 31/13 A3015 RMK A01 T03060125  RH  033%=      5-min Rain = 0
KSB1 122254Z 31001KT 31/13 A3015 RMK A01 T03070127  RH  033%=      5-min Rain = 0
KSB1 122255Z 01000KT 31/13 A3015 RMK A01 T03090125  RH  032%=      5-min Rain = 0
KSB1 122256Z 01003KT 31/13 A3015 RMK A01 T03110125  RH  032%=      5-min Rain = 0
KSB1 122257Z 35001KT 31/13 A3015 RMK A01 T03120125  RH  032%=      5-min Rain = 0
KSB1 122258Z 00001KT 31/13 A3015 RMK A01 T03120125  RH  032%=      5-min Rain = 0
KSB1 122259Z 02000KT 31/13 A3015 RMK A01 T03120125  RH  032%=      5-min Rain = 0
KSB1 122300Z 07002KT 31/13 A3015 RMK A01 T03120126  RH  032%=      5-min Rain = 0
KSB1 122301Z 06004KT 31/13 A3015 RMK A01 T03110125  RH  032%=      5-min Rain = 0
KSB1 122302Z 08005KT 31/13 A3015 RMK A01 T03080125  RH  033%=      5-min Rain = 0
KSB1 122303Z 07005KT 31/13 A3015 RMK A01 T03060125  RH  033%=      5-min Rain = 0
KSB1 122304Z 05006KT 31/12 A3015 RMK A01 T03060124  RH  033%=      5-min Rain = 0
KSB1 122305Z 06007KT 31/12 A3015 RMK A01 T03050124  RH  033%=      5-min Rain = 0
KSB1 122306Z 06007KT 31/12 A3015 RMK A01 T03050124  RH  033%=      5-min Rain = 0
KSB1 122307Z 06007KT 31/12 A3015 RMK A01 T03060124  RH  033%=      5-min Rain = 0
KSB1 122308Z 05003KT 31/12 A3015 RMK A01 T03060123  RH  033%=      5-min Rain = 0
KSB1 122309Z 04002KT 30/12 A3015 RMK A01 T03040122  RH  033%=      5-min Rain = 0
KSB1 122310Z 04004KT 30/12 A3015 RMK A01 T03030123  RH  033%=      5-min Rain = 0
KSB1 122311Z 05005KT 30/13 A3015 RMK A01 T03040125  RH  033%=      5-min Rain = 0
KSB1 122312Z 04005KT 31/13 A3015 RMK A01 T03070125  RH  033%=      5-min Rain = 0
KSB1 122313Z 03004KT 31/12 A3015 RMK A01 T03070124  RH  033%=      5-min Rain = 0
KSB1 122314Z 02004KT 31/13 A3015 RMK A01 T03070125  RH  033%=      5-min Rain = 0
KSB1 122315Z 02004KT 31/13 A3015 RMK A01 T03060126  RH  033%=      5-min Rain = 0
KSB1 122316Z 03004KT 31/13 A3015 RMK A01 T03070125  RH  033%=      5-min Rain = 0
KSB1 122317Z 05003KT 31/13 A3015 RMK A01 T03060125  RH  033%=      5-min Rain = 0
KSB1 122318Z 05003KT 31/13 A3015 RMK A01 T03060126  RH  033%=      5-min Rain = 0
KSB1 122319Z 08003KT 31/13 A3015 RMK A01 T03080126  RH  033%=      5-min Rain = 0
KSB1 122320Z 08003KT 31/13 A3015 RMK A01 T03080126  RH  033%=      5-min Rain = 0
KSB1 122321Z 11002KT 31/13 A3015 RMK A01 T03080125  RH  032%=      5-min Rain = 0
KSB1 122322Z 10001KT 31/13 A3015 RMK A01 T03080126  RH  033%=      5-min Rain = 0
KSB1 122323Z 13002KT 31/12 A3015 RMK A01 T03070124  RH  033%=      5-min Rain = 0
KSB1 122324Z 13005KT 31/12 A3015 RMK A01 T03070124  RH  033%=      5-min Rain = 0
KSB1 122325Z 13005KT 31/12 A3015 RMK A01 T03060124  RH  033%=      5-min Rain = 0
KSB1 122326Z 15009KT 31/13 A3015 RMK A01 T03060130  RH  034%=      5-min Rain = 0
KSB1 122327Z 16009KT 31/13 A3015 RMK A01 T03050131  RH  034%=      5-min Rain = 0
KSB1 122328Z 17009KT 30/13 A3015 RMK A01 T03030132  RH  035%=      5-min Rain = 0
KSB1 122329Z 16009KT 30/13 A3015 RMK A01 T03020132  RH  035%=      5-min Rain = 0
KSB1 122330Z 15009KT 30/13 A3015 RMK A01 T03010134  RH  036%=      5-min Rain = 0
KSB1 122331Z 17014KT 30/14 A3015 RMK A01 T03010138  RH  037%=      5-min Rain = 0
KSB1 122332Z 17017KT 30/14 A3015 RMK A01 T02960139  RH  038%=      5-min Rain = 0
KSB1 122333Z 17016KT 29/14 A3015 RMK A01 T02920137  RH  039%=      5-min Rain = 0
KSB1 122334Z 18014KT 29/14 A3015 RMK A01 T02900137  RH  039%=      5-min Rain = 0
KSB1 122335Z 18014KT 29/14 A3015 RMK A01 T02900135  RH  039%=      5-min Rain = 0
KSB1 122336Z 18013KT 29/13 A3015 RMK A01 T02890134  RH  039%=      5-min Rain = 0
KSB1 122337Z 18009KT 29/13 A3015 RMK A01 T02880134  RH  039%=      5-min Rain = 0
KSB1 122338Z 19009KT 29/14 A3015 RMK A01 T02880135  RH  039%=      5-min Rain = 0
KSB1 122339Z 18010KT 29/13 A3015 RMK A01 T02890134  RH  039%=      5-min Rain = 0
KSB1 122340Z 19011KT 29/13 A3015 RMK A01 T02890133  RH  038%=      5-min Rain = 0
KSB1 122341Z 19011KT 29/13 A3015 RMK A01 T02900133  RH  038%=      5-min Rain = 0
KSB1 122342Z 18011KT 29/13 A3015 RMK A01 T02910134  RH  038%=      5-min Rain = 0
KSB1 122343Z 17012KT 29/13 A3015 RMK A01 T02920134  RH  038%=      5-min Rain = 0
KSB1 122344Z 18011KT 29/13 A3015 RMK A01 T02910133  RH  038%=      5-min Rain = 0
KSB1 122345Z 17013KT 29/13 A3015 RMK A01 T02910133  RH  038%=      5-min Rain = 0
KSB1 122346Z 16010KT 29/13 A3015 RMK A01 T02930133  RH  038%=      5-min Rain = 0
KSB1 122347Z 16013KT 29/13 A3015 RMK A01 T02940132  RH  037%=      5-min Rain = 0
KSB1 122348Z 16011KT 29/13 A3015 RMK A01 T02930132  RH  037%=      5-min Rain = 0
KSB1 122349Z 17013KT 29/13 A3015 RMK A01 T02920134  RH  038%=      5-min Rain = 0
KSB1 122350Z 17012KT 29/13 A3015 RMK A01 T02900132  RH  038%=      5-min Rain = 0
KSB1 122351Z 17013KT 29/13 A3015 RMK A01 T02880133  RH  038%=      5-min Rain = 0
KSB1 122352Z 16013KT 29/14 A3015 RMK A01 T02880135  RH  039%=      5-min Rain = 0
KSB1 122353Z 16011KT 29/13 A3015 RMK A01 T02870134  RH  039%=      5-min Rain = 0
KSB1 122354Z 17011KT 29/13 A3015 RMK A01 T02880133  RH  039%=      5-min Rain = 0
KSB1 122355Z 17012KT 29/13 A3015 RMK A01 T02880133  RH  039%=      5-min Rain = 0
KSB1 122356Z 17012KT 29/13 A3015 RMK A01 T02880132  RH  038%=      5-min Rain = 0
KSB1 122357Z 18012KT 29/13 A3015 RMK A01 T02880134  RH  039%=      5-min Rain = 0
KSB1 122358Z 17013KT 29/14 A3015 RMK A01 T02870135  RH  039%=      5-min Rain = 0
KSB1 122359Z 17013KT 29/14 A3015 RMK A01 T02870136  RH  039%=      5-min Rain = 0
KSB1 130000Z 16011KT 29/14 A3015 RMK A01 T02860136  RH  040%=      5-min Rain = 0
KSB1 130001Z 17011KT 29/14 A3015 RMK A01 T02850135  RH  040%=      5-min Rain = 0
KSB1 130002Z 17012KT 29/13 A3015 RMK A01 T02860134  RH  039%=      5-min Rain = 0
KSB1 130003Z 17012KT 29/13 A3015 RMK A01 T02860134  RH  039%=      5-min Rain = 0
KSB1 130004Z 18011KT 29/14 A3015 RMK A01 T02860135  RH  039%=      5-min Rain = 0
KSB1 130005Z 18010KT 29/14 A3015 RMK A01 T02870135  RH  039%=      5-min Rain = 0
KSB1 130006Z 18010KT 29/13 A3015 RMK A01 T02880134  RH  039%=      5-min Rain = 0
KSB1 130007Z 16013KT 29/14 A3015 RMK A01 T02890136  RH  039%=      5-min Rain = 0
KSB1 130008Z 18012KT 29/14 A3015 RMK A01 T02890137  RH  039%=      5-min Rain = 0
KSB1 130009Z 18010KT 29/14 A3015 RMK A01 T02890138  RH  040%=      5-min Rain = 0
KSB1 130010Z 17013G18KT 29/14 A3015 RMK A01 T02890139  RH  040%=      5-min Rain = 0
KSB1 130011Z 17013KT 29/14 A3015 RMK A01 T02870137  RH  040%=      5-min Rain = 0
KSB1 130012Z 18014KT 28/14 A3015 RMK A01 T02840136  RH  040%=      5-min Rain = 0
KSB1 130013Z 18013KT 28/14 A3015 RMK A01 T02820138  RH  041%=      5-min Rain = 0
KSB1 130014Z 19012KT 28/14 A3015 RMK A01 T02810139  RH  042%=      5-min Rain = 0
KSB1 130015Z 19012KT 28/14 A3015 RMK A01 T02800140  RH  042%=      5-min Rain = 0
KSB1 130016Z 19010KT 28/14 A3015 RMK A01 T02790137  RH  042%=      5-min Rain = 0
KSB1 130017Z 20009KT 28/14 A3015 RMK A01 T02780139  RH  042%=      5-min Rain = 0
KSB1 130018Z 19008KT 28/14 A3015 RMK A01 T02780141  RH  043%=      5-min Rain = 0
KSB1 130019Z 20010KT 28/14 A3015 RMK A01 T02770139  RH  043%=      5-min Rain = 0
KSB1 130020Z 19010KT 28/14 A3015 RMK A01 T02770135  RH  042%=      5-min Rain = 0
KSB1 130021Z 19008KT 28/13 A3015 RMK A01 T02770134  RH  041%=      5-min Rain = 0
KSB1 130022Z 18009KT 28/14 A3015 RMK A01 T02760135  RH  042%=      5-min Rain = 0
KSB1 130023Z 18009KT 28/14 A3015 RMK A01 T02760137  RH  042%=      5-min Rain = 0
KSB1 130024Z 19008KT 28/14 A3015 RMK A01 T02760137  RH  043%=      5-min Rain = 0
KSB1 130025Z 17008KT 28/14 A3015 RMK A01 T02750137  RH  043%=      5-min Rain = 0
KSB1 130026Z 16007KT 28/14 A3015 RMK A01 T02760137  RH  042%=      5-min Rain = 0
KSB1 130027Z 18007KT 28/14 A3015 RMK A01 T02770137  RH  042%=      5-min Rain = 0
KSB1 130028Z 18006KT 28/14 A3015 RMK A01 T02780136  RH  042%=      5-min Rain = 0
KSB1 130029Z 19007KT 28/14 A3015 RMK A01 T02790137  RH  042%=      5-min Rain = 0
KSB1 130030Z 19008KT 28/14 A3015 RMK A01 T02800135  RH  041%=      5-min Rain = 0
KSB1 130031Z 18007KT 28/13 A3015 RMK A01 T02790134  RH  041%=      5-min Rain = 0
KSB1 130032Z 18007KT 28/14 A3015 RMK A01 T02790135  RH  041%=      5-min Rain = 0
KSB1 130033Z 18007KT 28/13 A3015 RMK A01 T02800134  RH  041%=      5-min Rain = 0
KSB1 130034Z 18006KT 28/13 A3015 RMK A01 T02800133  RH  040%=      5-min Rain = 0
KSB1 130035Z 20007KT 28/13 A3015 RMK A01 T02810134  RH  041%=      5-min Rain = 0
KSB1 130036Z 21007KT 28/14 A3015 RMK A01 T02810136  RH  041%=      5-min Rain = 0
KSB1 130037Z 21008KT 28/14 A3015 RMK A01 T02810135  RH  041%=      5-min Rain = 0
KSB1 130038Z 20007KT 28/13 A3015 RMK A01 T02810134  RH  040%=      5-min Rain = 0
KSB1 130039Z 20008KT 28/13 A3015 RMK A01 T02790134  RH  041%=      5-min Rain = 0
KSB1 130040Z 20008KT 28/13 A3015 RMK A01 T02800132  RH  040%=      5-min Rain = 0
KSB1 130041Z 19008KT 28/13 A3015 RMK A01 T02800132  RH  040%=      5-min Rain = 0
KSB1 130042Z 20006KT 28/13 A3015 RMK A01 T02810133  RH  040%=      5-min Rain = 0
KSB1 130043Z 21008KT 28/14 A3015 RMK A01 T02830135  RH  040%=      5-min Rain = 0
KSB1 130044Z 20008KT 28/14 A3015 RMK A01 T02830135  RH  040%=      5-min Rain = 0
KSB1 130045Z 19008KT 28/13 A3015 RMK A01 T02820134  RH  040%=      5-min Rain = 0
KSB1 130046Z 21006KT 28/14 A3015 RMK A01 T02810135  RH  041%=      5-min Rain = 0
KSB1 130047Z 20009KT 28/14 A3015 RMK A01 T02820136  RH  041%=      5-min Rain = 0
KSB1 130048Z 21008KT 28/14 A3015 RMK A01 T02830136  RH  040%=      5-min Rain = 0
KSB1 130049Z 20009KT 28/14 A3015 RMK A01 T02840135  RH  040%=      5-min Rain = 0
KSB1 130050Z 21007KT 28/14 A3015 RMK A01 T02840138  RH  041%=      5-min Rain = 0
KSB1 130051Z 20009KT 28/14 A3015 RMK A01 T02830138  RH  041%=      5-min Rain = 0
KSB1 130052Z 20007KT 28/14 A3015 RMK A01 T02830136  RH  041%=      5-min Rain = 0
KSB1 130053Z 19007KT 28/14 A3015 RMK A01 T02820135  RH  041%=      5-min Rain = 0
KSB1 130054Z 20007KT 28/13 A3015 RMK A01 T02810133  RH  040%=      5-min Rain = 0
KSB1 130055Z 21007KT 28/14 A3015 RMK A01 T02820135  RH  040%=      5-min Rain = 0
KSB1 130056Z 21008KT 28/14 A3015 RMK A01 T02820136  RH  041%=      5-min Rain = 0
KSB1 130057Z 21007KT 28/14 A3015 RMK A01 T02820135  RH  040%=      5-min Rain = 0
KSB1 130058Z 21005KT 28/13 A3015 RMK A01 T02820134  RH  040%=      5-min Rain = 0
KSB1 130059Z 21005KT 28/13 A3015 RMK A01 T02810134  RH  040%=      5-min Rain = 0
KSB1 130100Z 21005KT 28/13 A3015 RMK A01 T02810132  RH  040%=      5-min Rain = 0
KSB1 130101Z 21008KT 28/13 A3015 RMK A01 T02820132  RH  039%=      5-min Rain = 0
KSB1 130102Z 21007KT 28/13 A3015 RMK A01 T02830129  RH  039%=      5-min Rain = 0
KSB1 130103Z 21007KT 28/13 A3015 RMK A01 T02840130  RH  039%=      5-min Rain = 0
KSB1 130104Z 20007KT 28/13 A3015 RMK A01 T02840129  RH  038%=      5-min Rain = 0
KSB1 130105Z 21005KT 28/13 A3015 RMK A01 T02840131  RH  039%=      5-min Rain = 0
KSB1 130106Z 22005KT 28/13 A3015 RMK A01 T02840132  RH  039%=      5-min Rain = 0
KSB1 130107Z 22005KT 28/13 A3016 RMK A01 T02840131  RH  039%=      5-min Rain = 0
KSB1 130108Z 21007KT 28/13 A3016 RMK A01 T02840131  RH  039%=      5-min Rain = 0
KSB1 130109Z 21006KT 28/13 A3016 RMK A01 T02840132  RH  039%=      5-min Rain = 0
KSB1 130110Z 20006KT 28/13 A3016 RMK A01 T02830128  RH  038%=      5-min Rain = 0
KSB1 130111Z 21007KT 28/13 A3016 RMK A01 T02830126  RH  038%=      5-min Rain = 0
KSB1 130112Z 21006KT 28/13 A3016 RMK A01 T02820125  RH  038%=      5-min Rain = 0
KSB1 130113Z 21006KT 28/13 A3016 RMK A01 T02820125  RH  038%=      5-min Rain = 0
KSB1 130114Z 20006KT 28/12 A3016 RMK A01 T02810124  RH  038%=      5-min Rain = 0
KSB1 130115Z 19006KT 28/13 A3016 RMK A01 T02820126  RH  038%=      5-min Rain = 0
KSB1 130116Z 19007KT 28/13 A3016 RMK A01 T02810127  RH  038%=      5-min Rain = 0
KSB1 130117Z 20007KT 28/13 A3016 RMK A01 T02820126  RH  038%=      5-min Rain = 0
KSB1 130118Z 20006KT 28/13 A3016 RMK A01 T02810126  RH  038%=      5-min Rain = 0
KSB1 130119Z 20008KT 28/13 A3016 RMK A01 T02810129  RH  039%=      5-min Rain = 0
KSB1 130120Z 21007KT 28/13 A3016 RMK A01 T02800130  RH  039%=      5-min Rain = 0
KSB1 130121Z 21007KT 28/13 A3016 RMK A01 T02800131  RH  040%=      5-min Rain = 0
KSB1 130122Z 20008KT 28/13 A3016 RMK A01 T02790131  RH  040%=      5-min Rain = 0
KSB1 130123Z 20007KT 28/13 A3016 RMK A01 T02780131  RH  040%=      5-min Rain = 0
KSB1 130124Z 20008KT 28/13 A3016 RMK A01 T02780131  RH  040%=      5-min Rain = 0
KSB1 130125Z 20006KT 28/13 A3016 RMK A01 T02780130  RH  040%=      5-min Rain = 0
KSB1 130126Z 19006KT 28/13 A3016 RMK A01 T02780130  RH  040%=      5-min Rain = 0
KSB1 130127Z 18006KT 28/13 A3016 RMK A01 T02780130  RH  040%=      5-min Rain = 0
KSB1 130128Z 18005KT 28/13 A3016 RMK A01 T02780130  RH  040%=      5-min Rain = 0
KSB1 130129Z 18005KT 28/13 A3016 RMK A01 T02780131  RH  040%=      5-min Rain = 0
KSB1 130130Z 18005KT 28/13 A3016 RMK A01 T02780132  RH  040%=      5-min Rain = 0
KSB1 130131Z 19004KT 28/13 A3016 RMK A01 T02780132  RH  041%=      5-min Rain = 0
KSB1 130132Z 19004KT 28/13 A3016 RMK A01 T02780134  RH  041%=      5-min Rain = 0
KSB1 130133Z 19004KT 28/13 A3016 RMK A01 T02780134  RH  041%=      5-min Rain = 0
KSB1 130134Z 19004KT 28/13 A3016 RMK A01 T02780134  RH  041%=      5-min Rain = 0
KSB1 130135Z 20004KT 28/13 A3016 RMK A01 T02770134  RH  041%=      5-min Rain = 0
KSB1 130136Z 20004KT 28/14 A3016 RMK A01 T02770135  RH  041%=      5-min Rain = 0
KSB1 130137Z 20004KT 28/13 A3016 RMK A01 T02770134  RH  041%=      5-min Rain = 0
KSB1 130138Z 20006KT 28/13 A3016 RMK A01 T02760134  RH  042%=      5-min Rain = 0
KSB1 130139Z 20005KT 28/14 A3016 RMK A01 T02760135  RH  042%=      5-min Rain = 0
KSB1 130140Z 20006KT 28/13 A3016 RMK A01 T02760134  RH  042%=      5-min Rain = 0
KSB1 130141Z 21005KT 28/13 A3016 RMK A01 T02760134  RH  042%=      5-min Rain = 0
KSB1 130142Z 20005KT 28/14 A3016 RMK A01 T02750135  RH  042%=      5-min Rain = 0
KSB1 130143Z 21005KT 28/14 A3016 RMK A01 T02750135  RH  042%=      5-min Rain = 0
KSB1 130144Z 20005KT 28/14 A3016 RMK A01 T02750135  RH  042%=      5-min Rain = 0
KSB1 130145Z 20005KT 28/13 A3016 RMK A01 T02750134  RH  042%=      5-min Rain = 0
KSB1 130146Z 20004KT 28/13 A3016 RMK A01 T02750134  RH  042%=      5-min Rain = 0
KSB1 130147Z 20004KT 28/13 A3016 RMK A01 T02750134  RH  042%=      5-min Rain = 0
KSB1 130148Z 19003KT 28/14 A3016 RMK A01 T02750135  RH  042%=      5-min Rain = 0
KSB1 130149Z 19003KT 28/14 A3016 RMK A01 T02750135  RH  042%=      5-min Rain = 0
KSB1 130150Z 19004KT 28/14 A3016 RMK A01 T02750136  RH  042%=      5-min Rain = 0
KSB1 130151Z 18004KT 28/14 A3016 RMK A01 T02750135  RH  042%=      5-min Rain = 0
KSB1 130152Z 18003KT 28/14 A3016 RMK A01 T02750136  RH  042%=      5-min Rain = 0
KSB1 130153Z 18004KT 28/14 A3016 RMK A01 T02750136  RH  042%=      5-min Rain = 0
KSB1 130154Z 17004KT 28/14 A3016 RMK A01 T02750137  RH  043%=      5-min Rain = 0
KSB1 130155Z 17004KT 28/14 A3016 RMK A01 T02750137  RH  043%=      5-min Rain = 0
KSB1 130156Z 17004KT 28/14 A3016 RMK A01 T02750137  RH  043%=      5-min Rain = 0
KSB1 130157Z 17004KT 28/14 A3016 RMK A01 T02750138  RH  043%=      5-min Rain = 0
KSB1 130158Z 17003KT 27/14 A3016 RMK A01 T02740136  RH  043%=      5-min Rain = 0
KSB1 130159Z 18003KT 27/14 A3017 RMK A01 T02740137  RH  043%=      5-min Rain = 0
KSB1 130200Z 18002KT 27/14 A3017 RMK A01 T02740137  RH  043%=      5-min Rain = 0
KSB1 130201Z 17002KT 27/14 A3017 RMK A01 T02740137  RH  043%=      5-min Rain = 0
KSB1 130202Z 15001KT 27/14 A3017 RMK A01 T02740137  RH  043%=      5-min Rain = 0
KSB1 130203Z 15001KT 27/14 A3017 RMK A01 T02740137  RH  043%=      5-min Rain = 0
KSB1 130204Z 15001KT 27/14 A3017 RMK A01 T02740137  RH  043%=      5-min Rain = 0
KSB1 130205Z 15001KT 27/14 A3017 RMK A01 T02740137  RH  043%=      5-min Rain = 0
KSB1 130206Z 16001KT 27/14 A3017 RMK A01 T02740137  RH  043%=      5-min Rain = 0
KSB1 130207Z 13001KT 27/14 A3017 RMK A01 T02740137  RH  043%=      5-min Rain = 0
KSB1 130208Z 12001KT 27/14 A3017 RMK A01 T02740137  RH  043%=      5-min Rain = 0
KSB1 130209Z 11001KT 27/14 A3017 RMK A01 T02740137  RH  043%=      5-min Rain = 0
KSB1 130210Z 11000KT 27/14 A3017 RMK A01 T02740137  RH  043%=      5-min Rain = 0
KSB1 130211Z 00000KT 27/14 A3017 RMK A01 T02740138  RH  043%=      5-min Rain = 0
KSB1 130212Z 00000KT 27/14 A3017 RMK A01 T02740138  RH  043%=      5-min Rain = 0
KSB1 130213Z 11000KT 27/14 A3017 RMK A01 T02740136  RH  043%=      5-min Rain = 0
KSB1 130214Z 10000KT 27/14 A3017 RMK A01 T02740137  RH  043%=      5-min Rain = 0
KSB1 130215Z 11000KT 27/14 A3017 RMK A01 T02740143  RH  045%=      5-min Rain = 0
KSB1 130216Z 11000KT 27/14 A3017 RMK A01 T02730141  RH  044%=      5-min Rain = 0
KSB1 130217Z 11001KT 27/14 A3017 RMK A01 T02730140  RH  044%=      5-min Rain = 0
KSB1 130218Z 11001KT 27/14 A3017 RMK A01 T02730142  RH  044%=      5-min Rain = 0
KSB1 130219Z 15001KT 27/14 A3017 RMK A01 T02720140  RH  044%=      5-min Rain = 0
KSB1 130220Z 10001KT 27/14 A3017 RMK A01 T02720139  RH  044%=      5-min Rain = 0
KSB1 130221Z 12001KT 27/14 A3017 RMK A01 T02720141  RH  045%=      5-min Rain = 0
KSB1 130222Z 13001KT 27/14 A3017 RMK A01 T02720141  RH  045%=      5-min Rain = 0
KSB1 130223Z 13001KT 27/14 A3017 RMK A01 T02720140  RH  044%=      5-min Rain = 0
KSB1 130224Z 12001KT 27/14 A3017 RMK A01 T02710140  RH  045%=      5-min Rain = 0
KSB1 130225Z 13001KT 27/14 A3017 RMK A01 T02710141  RH  045%=      5-min Rain = 0
KSB1 130226Z 15001KT 27/14 A3017 RMK A01 T02710143  RH  045%=      5-min Rain = 0
KSB1 130227Z 13001KT 27/14 A3017 RMK A01 T02710141  RH  045%=      5-min Rain = 0
KSB1 130228Z 14001KT 27/14 A3017 RMK A01 T02700141  RH  045%=      5-min Rain = 0
KSB1 130229Z 13001KT 27/14 A3017 RMK A01 T02700140  RH  045%=      5-min Rain = 0
KSB1 130230Z 15002KT 27/14 A3017 RMK A01 T02700141  RH  045%=      5-min Rain = 0
KSB1 130231Z 16003KT 27/14 A3017 RMK A01 T02700140  RH  045%=      5-min Rain = 0
KSB1 130232Z 14002KT 27/14 A3017 RMK A01 T02710139  RH  044%=      5-min Rain = 0
KSB1 130233Z 16002KT 27/14 A3017 RMK A01 T02700139  RH  044%=      5-min Rain = 0
KSB1 130234Z 17002KT 27/14 A3017 RMK A01 T02700136  RH  044%=      5-min Rain = 0
KSB1 130235Z 18002KT 27/14 A3018 RMK A01 T02710137  RH  044%=      5-min Rain = 0
KSB1 130236Z 18002KT 27/14 A3018 RMK A01 T02710138  RH  044%=      5-min Rain = 0
KSB1 130237Z 18002KT 27/14 A3018 RMK A01 T02710138  RH  044%=      5-min Rain = 0
KSB1 130238Z 17001KT 27/14 A3018 RMK A01 T02700138  RH  044%=      5-min Rain = 0
KSB1 130239Z 19002KT 27/14 A3018 RMK A01 T02700138  RH  044%=      5-min Rain = 0
KSB1 130240Z 18001KT 27/14 A3018 RMK A01 T02700138  RH  044%=      5-min Rain = 0
KSB1 130241Z 18001KT 27/14 A3018 RMK A01 T02700138  RH  044%=      5-min Rain = 0
KSB1 130242Z 20002KT 27/14 A3018 RMK A01 T02700138  RH  044%=      5-min Rain = 0
KSB1 130243Z 17001KT 27/14 A3018 RMK A01 T02690137  RH  044%=      5-min Rain = 0
KSB1 130244Z 18001KT 27/14 A3018 RMK A01 T02700137  RH  044%=      5-min Rain = 0
KSB1 130245Z 18001KT 27/14 A3018 RMK A01 T02700137  RH  044%=      5-min Rain = 0
KSB1 130246Z 19001KT 27/14 A3018 RMK A01 T02690138  RH  044%=      5-min Rain = 0
KSB1 130247Z 19001KT 27/14 A3018 RMK A01 T02690140  RH  045%=      5-min Rain = 0
KSB1 130248Z 18001KT 27/14 A3018 RMK A01 T02690143  RH  046%=      5-min Rain = 0
KSB1 130249Z 17001KT 27/14 A3018 RMK A01 T02680142  RH  046%=      5-min Rain = 0
KSB1 130250Z 16001KT 27/14 A3018 RMK A01 T02680140  RH  045%=      5-min Rain = 0
KSB1 130251Z 16001KT 27/14 A3018 RMK A01 T02670140  RH  046%=      5-min Rain = 0
KSB1 130252Z 15001KT 27/14 A3018 RMK A01 T02670141  RH  046%=      5-min Rain = 0
KSB1 130253Z 14000KT 27/14 A3018 RMK A01 T02670136  RH  044%=      5-min Rain = 0
KSB1 130254Z 12001KT 27/14 A3018 RMK A01 T02670137  RH  045%=      5-min Rain = 0
KSB1 130255Z 13001KT 27/14 A3018 RMK A01 T02670137  RH  045%=      5-min Rain = 0
KSB1 130256Z 14001KT 27/14 A3018 RMK A01 T02670141  RH  046%=      5-min Rain = 0
KSB1 130257Z 15001KT 27/14 A3018 RMK A01 T02670143  RH  047%=      5-min Rain = 0
KSB1 130258Z 14001KT 27/14 A3018 RMK A01 T02670144  RH  047%=      5-min Rain = 0
KSB1 130259Z 14002KT 27/14 A3018 RMK A01 T02660143  RH  047%=      5-min Rain = 0
KSB1 130300Z 14002KT 27/14 A3019 RMK A01 T02660144  RH  047%=      5-min Rain = 0
KSB1 130301Z 14003KT 27/15 A3019 RMK A01 T02660145  RH  047%=      5-min Rain = 0
KSB1 130302Z 14003KT 27/15 A3019 RMK A01 T02650147  RH  048%=      5-min Rain = 0
KSB1 130303Z 13003KT 27/15 A3019 RMK A01 T02650147  RH  048%=      5-min Rain = 0
KSB1 130304Z 13003KT 26/15 A3019 RMK A01 T02640147  RH  048%=      5-min Rain = 0
KSB1 130305Z 13003KT 26/15 A3019 RMK A01 T02640146  RH  048%=      5-min Rain = 0
KSB1 130306Z 14003KT 26/15 A3019 RMK A01 T02640146  RH  048%=      5-min Rain = 0
KSB1 130307Z 14003KT 26/15 A3019 RMK A01 T02640145  RH  048%=      5-min Rain = 0
KSB1 130308Z 14004KT 26/15 A3019 RMK A01 T02640145  RH  048%=      5-min Rain = 0
KSB1 130309Z 14004KT 26/15 A3019 RMK A01 T02640145  RH  048%=      5-min Rain = 0
KSB1 130310Z 15003KT 26/15 A3019 RMK A01 T02640146  RH  048%=      5-min Rain = 0
KSB1 130311Z 15003KT 26/15 A3019 RMK A01 T02630147  RH  049%=      5-min Rain = 0
KSB1 130312Z 15003KT 26/15 A3019 RMK A01 T02630148  RH  049%=      5-min Rain = 0
KSB1 130313Z 15003KT 26/15 A3019 RMK A01 T02620148  RH  049%=      5-min Rain = 0
KSB1 130314Z 15003KT 26/15 A3019 RMK A01 T02620147  RH  049%=      5-min Rain = 0
KSB1 130315Z 14003KT 26/15 A3019 RMK A01 T02620148  RH  049%=      5-min Rain = 0
KSB1 130316Z 14002KT 26/15 A3019 RMK A01 T02610148  RH  050%=      5-min Rain = 0
KSB1 130317Z 15003KT 26/15 A3019 RMK A01 T02610148  RH  050%=      5-min Rain = 0
KSB1 130318Z 14002KT 26/15 A3019 RMK A01 T02600148  RH  050%=      5-min Rain = 0
KSB1 130319Z 14003KT 26/15 A3019 RMK A01 T02600148  RH  050%=      5-min Rain = 0
KSB1 130320Z 14003KT 26/15 A3019 RMK A01 T02590147  RH  050%=      5-min Rain = 0
KSB1 130321Z 15003KT 26/15 A3019 RMK A01 T02590148  RH  050%=      5-min Rain = 0
KSB1 130322Z 15002KT 26/15 A3019 RMK A01 T02590148  RH  050%=      5-min Rain = 0
KSB1 130323Z 16002KT 26/15 A3019 RMK A01 T02590145  RH  050%=      5-min Rain = 0
KSB1 130324Z 15002KT 26/15 A3019 RMK A01 T02590145  RH  049%=      5-min Rain = 0
KSB1 130325Z 15002KT 26/15 A3019 RMK A01 T02590146  RH  050%=      5-min Rain = 0
KSB1 130326Z 15002KT 26/15 A3019 RMK A01 T02590147  RH  050%=      5-min Rain = 0
KSB1 130327Z 16003KT 26/15 A3019 RMK A01 T02590146  RH  050%=      5-min Rain = 0
KSB1 130328Z 15002KT 26/15 A3019 RMK A01 T02590146  RH  050%=      5-min Rain = 0
KSB1 130329Z 15002KT 26/15 A3019 RMK A01 T02590147  RH  050%=      5-min Rain = 0
KSB1 130330Z 16002KT 26/15 A3019 RMK A01 T02590147  RH  050%=      5-min Rain = 0
KSB1 130331Z 16002KT 26/15 A3019 RMK A01 T02590145  RH  049%=      5-min Rain = 0
KSB1 130332Z 17002KT 26/15 A3019 RMK A01 T02590146  RH  050%=      5-min Rain = 0
KSB1 130333Z 18002KT 26/15 A3019 RMK A01 T02590145  RH  049%=      5-min Rain = 0
KSB1 130334Z 20001KT 26/15 A3019 RMK A01 T02590146  RH  050%=      5-min Rain = 0
KSB1 130335Z 21002KT 26/15 A3019 RMK A01 T02590147  RH  050%=      5-min Rain = 0
KSB1 130336Z 22002KT 26/15 A3019 RMK A01 T02590147  RH  050%=      5-min Rain = 0
KSB1 130337Z 22003KT 26/15 A3019 RMK A01 T02580147  RH  050%=      5-min Rain = 0
KSB1 130338Z 22003KT 26/15 A302 RMK A01 T02580147  RH  050%=      5-min Rain = 0
KSB1 130339Z 22004KT 26/15 A302 RMK A01 T02570149  RH  051%=      5-min Rain = 0
KSB1 130340Z 22006KT 26/15 A302 RMK A01 T02550153  RH  053%=      5-min Rain = 0
KSB1 130341Z 21009KT 25/15 A302 RMK A01 T02530151  RH  053%=      5-min Rain = 0
KSB1 130342Z 23011KT 25/15 A302 RMK A01 T02520150  RH  053%=      5-min Rain = 0
KSB1 130343Z 23013KT 25/15 A302 RMK A01 T02520146  RH  052%=      5-min Rain = 0
KSB1 130344Z 23014KT 26/14 A302 RMK A01 T02550143  RH  050%=      5-min Rain = 0
KSB1 130345Z 22013KT 26/14 A302 RMK A01 T02580142  RH  049%=      5-min Rain = 0
KSB1 130346Z 23013KT 26/14 A302 RMK A01 T02590142  RH  048%=      5-min Rain = 0
KSB1 130347Z 23014KT 26/14 A302 RMK A01 T02590141  RH  048%=      5-min Rain = 0
KSB1 130348Z 24013KT 26/14 A302 RMK A01 T02590141  RH  048%=      5-min Rain = 0
KSB1 130349Z 24012KT 26/14 A302 RMK A01 T02580141  RH  048%=      5-min Rain = 0
KSB1 130350Z 24010KT 26/14 A3021 RMK A01 T02580141  RH  048%=      5-min Rain = 0
KSB1 130351Z 24010KT 26/14 A3021 RMK A01 T02570141  RH  049%=      5-min Rain = 0
KSB1 130352Z 24011KT 26/14 A3021 RMK A01 T02560141  RH  049%=      5-min Rain = 0
KSB1 130353Z 24010KT 26/14 A3021 RMK A01 T02570142  RH  049%=      5-min Rain = 0
KSB1 130354Z 25008KT 26/14 A3021 RMK A01 T02570142  RH  049%=      5-min Rain = 0
KSB1 130355Z 25009KT 26/14 A3021 RMK A01 T02570143  RH  049%=      5-min Rain = 0
KSB1 130356Z 25008KT 26/14 A3021 RMK A01 T02570142  RH  049%=      5-min Rain = 0
KSB1 130357Z 25008KT 26/14 A3021 RMK A01 T02570142  RH  049%=      5-min Rain = 0
KSB1 130358Z 25007KT 26/14 A3021 RMK A01 T02570143  RH  049%=      5-min Rain = 0
KSB1 130359Z 25007KT 26/14 A3021 RMK A01 T02560143  RH  050%=      5-min Rain = 0
KSB1 130400Z 26005KT 26/14 A3022 RMK A01 T02560144  RH  050%=      5-min Rain = 0
KSB1 130401Z 26004KT 26/14 A3022 RMK A01 T02550144  RH  050%=      5-min Rain = 0
KSB1 130402Z 26005KT 26/15 A3022 RMK A01 T02550145  RH  051%=      5-min Rain = 0
KSB1 130403Z 25005KT 25/15 A3022 RMK A01 T02540145  RH  051%=      5-min Rain = 0
KSB1 130404Z 24005KT 25/15 A3022 RMK A01 T02540145  RH  051%=      5-min Rain = 0
KSB1 130405Z 24006KT 25/15 A3022 RMK A01 T02530145  RH  051%=      5-min Rain = 0
KSB1 130406Z 24005KT 25/15 A3022 RMK A01 T02530145  RH  051%=      5-min Rain = 0
KSB1 130407Z 24005KT 25/15 A3022 RMK A01 T02530145  RH  051%=      5-min Rain = 0
KSB1 130408Z 25005KT 25/14 A3022 RMK A01 T02530144  RH  051%=      5-min Rain = 0
KSB1 130409Z 27004KT 25/14 A3022 RMK A01 T02530144  RH  051%=      5-min Rain = 0
KSB1 130410Z 27005KT 25/14 A3022 RMK A01 T02530143  RH  051%=      5-min Rain = 0
KSB1 130411Z 27005KT 25/14 A3022 RMK A01 T02540143  RH  050%=      5-min Rain = 0
KSB1 130412Z 29005KT 26/14 A3022 RMK A01 T02550144  RH  050%=      5-min Rain = 0
KSB1 130413Z 30005KT 26/14 A3022 RMK A01 T02550143  RH  050%=      5-min Rain = 0
KSB1 130414Z 29005KT 26/14 A3022 RMK A01 T02560143  RH  050%=      5-min Rain = 0
KSB1 130415Z 30005KT 26/14 A3022 RMK A01 T02570144  RH  050%=      5-min Rain = 0
KSB1 130416Z 28006KT 26/14 A3022 RMK A01 T02570144  RH  050%=      5-min Rain = 0
KSB1 130417Z 29007KT 26/14 A3022 RMK A01 T02570144  RH  050%=      5-min Rain = 0
KSB1 130418Z 29009KT 26/15 A3022 RMK A01 T02570145  RH  050%=      5-min Rain = 0
KSB1 130419Z 27006KT 26/15 A3023 RMK A01 T02570146  RH  050%=      5-min Rain = 0
KSB1 130420Z 27006KT 26/15 A3023 RMK A01 T02560147  RH  051%=      5-min Rain = 0
KSB1 130421Z 28009KT 26/15 A3023 RMK A01 T02550149  RH  052%=      5-min Rain = 0
KSB1 130422Z 28008KT 25/15 A3023 RMK A01 T02540149  RH  052%=      5-min Rain = 0
KSB1 130423Z 27007KT 25/15 A3023 RMK A01 T02530150  RH  053%=      5-min Rain = 0
KSB1 130424Z 29006KT 25/15 A3023 RMK A01 T02520150  RH  053%=      5-min Rain = 0
KSB1 130425Z 29007KT 25/15 A3023 RMK A01 T02520150  RH  053%=      5-min Rain = 0
KSB1 130426Z 28005KT 25/15 A3023 RMK A01 T02520149  RH  053%=      5-min Rain = 0
KSB1 130427Z 30006KT 25/15 A3023 RMK A01 T02520149  RH  053%=      5-min Rain = 0
KSB1 130428Z 29006KT 25/15 A3023 RMK A01 T02510148  RH  053%=      5-min Rain = 0
KSB1 130429Z 29008KT 25/15 A3023 RMK A01 T02510148  RH  053%=      5-min Rain = 0
KSB1 130430Z 30008KT 25/15 A3023 RMK A01 T02510147  RH  052%=      5-min Rain = 0
KSB1 130431Z 30008KT 25/15 A3023 RMK A01 T02510146  RH  052%=      5-min Rain = 0
KSB1 130432Z 30007KT 25/15 A3023 RMK A01 T02510146  RH  052%=      5-min Rain = 0
KSB1 130433Z 30008KT 25/15 A3023 RMK A01 T02510146  RH  052%=      5-min Rain = 0
KSB1 130434Z 30009KT 25/15 A3023 RMK A01 T02510146  RH  052%=      5-min Rain = 0
KSB1 130435Z 30009KT 25/15 A3023 RMK A01 T02510146  RH  052%=      5-min Rain = 0
KSB1 130436Z 30010KT 25/15 A3023 RMK A01 T02500146  RH  052%=      5-min Rain = 0
KSB1 130437Z 30012KT 25/15 A3023 RMK A01 T02500146  RH  052%=      5-min Rain = 0
KSB1 130438Z 30013KT 25/15 A3023 RMK A01 T02490145  RH  052%=      5-min Rain = 0
KSB1 130439Z 30012KT 25/15 A3023 RMK A01 T02490145  RH  052%=      5-min Rain = 0
KSB1 130440Z 30013KT 25/15 A3023 RMK A01 T02490145  RH  052%=      5-min Rain = 0
KSB1 130441Z 30012KT 25/15 A3023 RMK A01 T02490145  RH  052%=      5-min Rain = 0
KSB1 130442Z 30011KT 25/15 A3023 RMK A01 T02490146  RH  053%=      5-min Rain = 0
KSB1 130443Z 31012KT 25/15 A3023 RMK A01 T02480145  RH  053%=      5-min Rain = 0
KSB1 130444Z 30012KT 25/15 A3023 RMK A01 T02480145  RH  053%=      5-min Rain = 0
KSB1 130445Z 31010KT 25/15 A3023 RMK A01 T02490146  RH  053%=      5-min Rain = 0
KSB1 130446Z 31011KT 25/15 A3023 RMK A01 T02480146  RH  053%=      5-min Rain = 0
KSB1 130447Z 31010KT 25/15 A3023 RMK A01 T02480146  RH  053%=      5-min Rain = 0
KSB1 130448Z 31010KT 25/15 A3023 RMK A01 T02480146  RH  053%=      5-min Rain = 0
KSB1 130449Z 31010KT 25/15 A3023 RMK A01 T02470146  RH  053%=      5-min Rain = 0
KSB1 130450Z 30009KT 25/15 A3023 RMK A01 T02470147  RH  054%=      5-min Rain = 0
KSB1 130451Z 31010KT 25/15 A3023 RMK A01 T02470147  RH  054%=      5-min Rain = 0
KSB1 130452Z 31010KT 25/15 A3023 RMK A01 T02460146  RH  054%=      5-min Rain = 0
KSB1 130453Z 31014KT 25/15 A3023 RMK A01 T02460146  RH  054%=      5-min Rain = 0
KSB1 130454Z 31013KT 25/15 A3023 RMK A01 T02460146  RH  054%=      5-min Rain = 0
KSB1 130455Z 30012KT 25/15 A3023 RMK A01 T02460146  RH  054%=      5-min Rain = 0
KSB1 130456Z 31012KT 25/15 A3023 RMK A01 T02460145  RH  053%=      5-min Rain = 0
KSB1 130457Z 31013KT 25/14 A3023 RMK A01 T02460144  RH  053%=      5-min Rain = 0
KSB1 130458Z 30013KT 25/14 A3023 RMK A01 T02460143  RH  052%=      5-min Rain = 0
KSB1 130459Z 30014KT 25/14 A3023 RMK A01 T02470143  RH  052%=      5-min Rain = 0

Page generated in 0.0326 seconds.